Observation data for Sterling City on 12/05/2018      Previous  Date       Current Mesonet Observations  Soil Data  Daily Summary Page  Observations in Plain Language
KSC1 050600Z 09004KT 01/M02 A3038 RMK A01 T00081018  RH  083%=      5-min Rain = 0
KSC1 050601Z 09003KT 01/M02 A3038 RMK A01 T00071017  RH  084%=      5-min Rain = 0
KSC1 050602Z 08003KT 01/M02 A3038 RMK A01 T00071017  RH  084%=      5-min Rain = 0
KSC1 050603Z 09002KT 01/M02 A3038 RMK A01 T00071016  RH  085%=      5-min Rain = 0
KSC1 050604Z 09002KT 01/M02 A3038 RMK A01 T00061016  RH  085%=      5-min Rain = 0
KSC1 050605Z 09002KT 01/M02 A3038 RMK A01 T00071015  RH  085%=      5-min Rain = 0
KSC1 050606Z 09003KT 01/M02 A3038 RMK A01 T00071015  RH  085%=      5-min Rain = 0
KSC1 050607Z 09003KT 01/M02 A3038 RMK A01 T00071015  RH  085%=      5-min Rain = 0
KSC1 050608Z 10003KT 01/M02 A3038 RMK A01 T00071015  RH  085%=      5-min Rain = 0
KSC1 050609Z 10003KT 01/M02 A3038 RMK A01 T00071015  RH  085%=      5-min Rain = 0
KSC1 050610Z 09003KT 01/M02 A3038 RMK A01 T00071016  RH  085%=      5-min Rain = 0
KSC1 050611Z 10004KT 01/M02 A3038 RMK A01 T00071016  RH  085%=      5-min Rain = 0
KSC1 050612Z 10004KT 01/M02 A3038 RMK A01 T00071016  RH  085%=      5-min Rain = 0
KSC1 050613Z 09004KT 01/M02 A3038 RMK A01 T00071015  RH  085%=      5-min Rain = 0
KSC1 050614Z 09003KT 01/M02 A3038 RMK A01 T00071016  RH  085%=      5-min Rain = 0
KSC1 050615Z 09003KT 01/M02 A3038 RMK A01 T00061017  RH  084%=      5-min Rain = 0
KSC1 050616Z 10003KT 01/M02 A3037 RMK A01 T00061018  RH  084%=      5-min Rain = 0
KSC1 050617Z 09003KT 01/M02 A3037 RMK A01 T00051018  RH  084%=      5-min Rain = 0
KSC1 050618Z 09003KT 01/M02 A3037 RMK A01 T00051019  RH  085%=      5-min Rain = 0
KSC1 050619Z 09003KT 01/M02 A3037 RMK A01 T00051018  RH  085%=      5-min Rain = 0
KSC1 050620Z 09003KT 01/M02 A3037 RMK A01 T00051017  RH  085%=      5-min Rain = 0
KSC1 050621Z 09003KT 00/M02 A3037 RMK A01 T00041018  RH  085%=      5-min Rain = 0
KSC1 050622Z 09003KT 00/M02 A3037 RMK A01 T00041018  RH  085%=      5-min Rain = 0
KSC1 050623Z 09003KT 00/M02 A3037 RMK A01 T00041018  RH  085%=      5-min Rain = 0
KSC1 050624Z 09003KT 00/M02 A3037 RMK A01 T00031018  RH  085%=      5-min Rain = 0
KSC1 050625Z 09003KT 00/M02 A3037 RMK A01 T00031019  RH  085%=      5-min Rain = 0
KSC1 050626Z 09003KT 00/M02 A3037 RMK A01 T00031019  RH  086%=      5-min Rain = 0
KSC1 050627Z 09004KT 00/M02 A3037 RMK A01 T00021019  RH  086%=      5-min Rain = 0
KSC1 050628Z 09003KT 00/M02 A3037 RMK A01 T00021018  RH  086%=      5-min Rain = 0
KSC1 050629Z 10004KT 00/M02 A3037 RMK A01 T00021018  RH  086%=      5-min Rain = 0
KSC1 050630Z 09004KT 00/M02 A3037 RMK A01 T00021017  RH  087%=      5-min Rain = 0
KSC1 050631Z 09005KT 00/M02 A3037 RMK A01 T00021017  RH  087%=      5-min Rain = 0
KSC1 050632Z 09005KT 00/M02 A3037 RMK A01 T00031016  RH  087%=      5-min Rain = 0
KSC1 050633Z 09005KT 00/M02 A3037 RMK A01 T00041015  RH  087%=      5-min Rain = 0
KSC1 050634Z 09005KT 01/M01 A3037 RMK A01 T00061013  RH  087%=      5-min Rain = 0
KSC1 050635Z 09005KT 01/M01 A3037 RMK A01 T00071013  RH  087%=      5-min Rain = 0
KSC1 050636Z 09006KT 01/M01 A3037 RMK A01 T00081013  RH  086%=      5-min Rain = 0
KSC1 050637Z 08006KT 01/M01 A3037 RMK A01 T00091013  RH  085%=      5-min Rain = 0
KSC1 050638Z 08005KT 01/M01 A3037 RMK A01 T00101013  RH  085%=      5-min Rain = 0
KSC1 050639Z 08005KT 01/M01 A3037 RMK A01 T00111013  RH  084%=      5-min Rain = 0
KSC1 050640Z 08005KT 01/M01 A3037 RMK A01 T00121013  RH  083%=      5-min Rain = 0
KSC1 050641Z 08005KT 01/M01 A3037 RMK A01 T00131013  RH  083%=      5-min Rain = 0
KSC1 050642Z 08005KT 01/M01 A3037 RMK A01 T00131013  RH  082%=      5-min Rain = 0
KSC1 050643Z 08004KT 01/M01 A3037 RMK A01 T00141013  RH  082%=      5-min Rain = 0
KSC1 050644Z 09004KT 01/M01 A3037 RMK A01 T00141013  RH  082%=      5-min Rain = 0
KSC1 050645Z 08004KT 01/M01 A3037 RMK A01 T00141014  RH  082%=      5-min Rain = 0
KSC1 050646Z 08003KT 01/M01 A3037 RMK A01 T00141014  RH  082%=      5-min Rain = 0
KSC1 050647Z 09003KT 01/M01 A3037 RMK A01 T00141014  RH  082%=      5-min Rain = 0
KSC1 050648Z 08003KT 01/M01 A3037 RMK A01 T00141014  RH  082%=      5-min Rain = 0
KSC1 050649Z 08002KT 01/M01 A3037 RMK A01 T00131014  RH  082%=      5-min Rain = 0
KSC1 050650Z 08002KT 01/M02 A3037 RMK A01 T00131015  RH  082%=      5-min Rain = 0
KSC1 050651Z 08002KT 01/M02 A3037 RMK A01 T00131015  RH  082%=      5-min Rain = 0
KSC1 050652Z 08002KT 01/M02 A3037 RMK A01 T00121016  RH  082%=      5-min Rain = 0
KSC1 050653Z 08002KT 01/M02 A3037 RMK A01 T00111016  RH  082%=      5-min Rain = 0
KSC1 050654Z 08003KT 01/M02 A3037 RMK A01 T00111016  RH  082%=      5-min Rain = 0
KSC1 050655Z 08003KT 01/M02 A3037 RMK A01 T00101016  RH  083%=      5-min Rain = 0
KSC1 050656Z 08003KT 01/M02 A3037 RMK A01 T00101016  RH  083%=      5-min Rain = 0
KSC1 050657Z 08003KT 01/M02 A3037 RMK A01 T00101016  RH  083%=      5-min Rain = 0
KSC1 050658Z 08003KT 01/M02 A3037 RMK A01 T00101015  RH  083%=      5-min Rain = 0
KSC1 050659Z 09003KT 01/M02 A3037 RMK A01 T00101015  RH  083%=      5-min Rain = 0
KSC1 050700Z 08003KT 01/M02 A3037 RMK A01 T00101016  RH  083%=      5-min Rain = 0
KSC1 050701Z 08003KT 01/M02 A3037 RMK A01 T00101016  RH  083%=      5-min Rain = 0
KSC1 050702Z 08002KT 01/M02 A3037 RMK A01 T00101016  RH  083%=      5-min Rain = 0
KSC1 050703Z 07002KT 01/M02 A3037 RMK A01 T00091017  RH  083%=      5-min Rain = 0
KSC1 050704Z 07001KT 01/M02 A3037 RMK A01 T00091017  RH  083%=      5-min Rain = 0
KSC1 050705Z 05002KT 01/M02 A3037 RMK A01 T00081018  RH  083%=      5-min Rain = 0
KSC1 050706Z 05002KT 01/M02 A3038 RMK A01 T00071017  RH  084%=      5-min Rain = 0
KSC1 050707Z 05002KT 01/M02 A3038 RMK A01 T00071016  RH  084%=      5-min Rain = 0
KSC1 050708Z 05001KT 01/M02 A3038 RMK A01 T00081016  RH  084%=      5-min Rain = 0
KSC1 050709Z 05001KT 01/M02 A3037 RMK A01 T00081016  RH  085%=      5-min Rain = 0
KSC1 050710Z 07001KT 01/M02 A3037 RMK A01 T00071016  RH  085%=      5-min Rain = 0
KSC1 050711Z 09001KT 01/M02 A3037 RMK A01 T00071016  RH  085%=      5-min Rain = 0
KSC1 050712Z 08001KT 01/M02 A3037 RMK A01 T00071016  RH  085%=      5-min Rain = 0
KSC1 050713Z 10001KT 01/M02 A3037 RMK A01 T00061016  RH  085%=      5-min Rain = 0
KSC1 050714Z 11001KT 01/M02 A3037 RMK A01 T00061016  RH  085%=      5-min Rain = 0
KSC1 050715Z 10002KT 01/M02 A3037 RMK A01 T00061016  RH  085%=      5-min Rain = 0
KSC1 050716Z 11002KT 01/M02 A3037 RMK A01 T00061016  RH  085%=      5-min Rain = 0
KSC1 050717Z 12001KT 01/M02 A3037 RMK A01 T00061017  RH  085%=      5-min Rain = 0
KSC1 050718Z 12002KT 01/M02 A3037 RMK A01 T00051019  RH  084%=      5-min Rain = 0
KSC1 050719Z 12002KT 00/M02 A3037 RMK A01 T00041019  RH  084%=      5-min Rain = 0
KSC1 050720Z 13002KT 01/M02 A3037 RMK A01 T00051017  RH  085%=      5-min Rain = 0
KSC1 050721Z 12002KT 01/M02 A3038 RMK A01 T00051017  RH  085%=      5-min Rain = 0
KSC1 050722Z 12002KT 01/M02 A3038 RMK A01 T00051018  RH  085%=      5-min Rain = 0
KSC1 050723Z 12001KT 01/M02 A3038 RMK A01 T00051019  RH  084%=      5-min Rain = 0
KSC1 050724Z 10002KT 00/M02 A3038 RMK A01 T00041020  RH  084%=      5-min Rain = 0
KSC1 050725Z 10001KT 00/M02 A3038 RMK A01 T00031020  RH  084%=      5-min Rain = 0
KSC1 050726Z 08001KT 00/M02 A3038 RMK A01 T00031020  RH  085%=      5-min Rain = 0
KSC1 050727Z 09002KT 00/M02 A3038 RMK A01 T00031019  RH  085%=      5-min Rain = 0
KSC1 050728Z 10002KT 00/M02 A3038 RMK A01 T00031018  RH  086%=      5-min Rain = 0
KSC1 050729Z 11002KT 00/M02 A3038 RMK A01 T00021018  RH  086%=      5-min Rain = 0
KSC1 050730Z 10002KT 00/M02 A3038 RMK A01 T00021018  RH  086%=      5-min Rain = 0
KSC1 050731Z 10002KT 00/M02 A3038 RMK A01 T00021018  RH  086%=      5-min Rain = 0
KSC1 050732Z 11002KT 00/M02 A3038 RMK A01 T00021018  RH  087%=      5-min Rain = 0
KSC1 050733Z 11002KT 00/M02 A3038 RMK A01 T00021018  RH  087%=      5-min Rain = 0
KSC1 050734Z 12002KT 00/M02 A3038 RMK A01 T00011018  RH  087%=      5-min Rain = 0
KSC1 050735Z 12002KT 00/M02 A3038 RMK A01 T00021018  RH  087%=      5-min Rain = 0
KSC1 050736Z 10002KT 00/M02 A3038 RMK A01 T00011017  RH  087%=      5-min Rain = 0
KSC1 050737Z 12002KT 00/M02 A3038 RMK A01 T00021017  RH  087%=      5-min Rain = 0
KSC1 050738Z 12002KT 00/M02 A3037 RMK A01 T00021017  RH  087%=      5-min Rain = 0
KSC1 050739Z 11002KT 00/M02 A3037 RMK A01 T00021017  RH  087%=      5-min Rain = 0
KSC1 050740Z 11002KT 00/M02 A3037 RMK A01 T00021018  RH  086%=      5-min Rain = 0
KSC1 050741Z 11002KT 00/M02 A3038 RMK A01 T00021019  RH  086%=      5-min Rain = 0
KSC1 050742Z 11002KT 00/M02 A3038 RMK A01 T00011019  RH  086%=      5-min Rain = 0
KSC1 050743Z 11002KT 00/02 A3037 RMK A01 T00000-20  RH  086%=      5-min Rain = 0
KSC1 050744Z 11002KT M00/M02 A3037 RMK A01 T10011022  RH  085%=      5-min Rain = 0
KSC1 050745Z 11003KT M00/M03 A3037 RMK A01 T10021025  RH  085%=      5-min Rain = 0
KSC1 050746Z 12002KT M00/M03 A3037 RMK A01 T10031025  RH  085%=      5-min Rain = 0
KSC1 050747Z 13003KT M00/M02 A3037 RMK A01 T10041023  RH  087%=      5-min Rain = 0
KSC1 050748Z 13003KT M00/M02 A3037 RMK A01 T10041021  RH  088%=      5-min Rain = 0
KSC1 050749Z 12003KT M00/M02 A3037 RMK A01 T10041020  RH  089%=      5-min Rain = 0
KSC1 050750Z 12002KT M00/M02 A3037 RMK A01 T10031019  RH  089%=      5-min Rain = 0
KSC1 050751Z 12002KT M01/M02 A3037 RMK A01 T10051022  RH  088%=      5-min Rain = 0
KSC1 050752Z 12002KT M01/M02 A3038 RMK A01 T10061024  RH  088%=      5-min Rain = 0
KSC1 050753Z 10001KT M01/M02 A3038 RMK A01 T10061023  RH  088%=      5-min Rain = 0
KSC1 050754Z 09001KT M01/M02 A3038 RMK A01 T10071022  RH  090%=      5-min Rain = 0
KSC1 050755Z 08001KT M01/M02 A3037 RMK A01 T10051018  RH  091%=      5-min Rain = 0
KSC1 050756Z 08001KT M00/M02 A3037 RMK A01 T10041016  RH  091%=      5-min Rain = 0
KSC1 050757Z 08001KT M00/M02 A3037 RMK A01 T10031016  RH  091%=      5-min Rain = 0
KSC1 050758Z 09001KT M00/M02 A3037 RMK A01 T10031017  RH  090%=      5-min Rain = 0
KSC1 050759Z 11001KT M00/M02 A3037 RMK A01 T10031017  RH  090%=      5-min Rain = 0
KSC1 050800Z 12001KT M00/M02 A3037 RMK A01 T10031018  RH  090%=      5-min Rain = 0
KSC1 050801Z 12001KT M00/M02 A3037 RMK A01 T10031018  RH  089%=      5-min Rain = 0
KSC1 050802Z 13001KT M00/M02 A3037 RMK A01 T10041020  RH  089%=      5-min Rain = 0
KSC1 050803Z 13001KT M00/M02 A3037 RMK A01 T10041021  RH  089%=      5-min Rain = 0
KSC1 050804Z 14001KT M01/M02 A3037 RMK A01 T10061023  RH  088%=      5-min Rain = 0
KSC1 050805Z 14001KT M01/M03 A3037 RMK A01 T10091028  RH  087%=      5-min Rain = 0
KSC1 050806Z 15001KT M01/M03 A3037 RMK A01 T10101029  RH  087%=      5-min Rain = 0
KSC1 050807Z 16001KT M01/M03 A3037 RMK A01 T10101027  RH  089%=      5-min Rain = 0
KSC1 050808Z 16001KT M01/M02 A3037 RMK A01 T10101024  RH  090%=      5-min Rain = 0
KSC1 050809Z 15001KT M01/M02 A3038 RMK A01 T10091021  RH  091%=      5-min Rain = 0
KSC1 050810Z 15002KT M01/M02 A3038 RMK A01 T10081019  RH  092%=      5-min Rain = 0
KSC1 050811Z 14002KT M01/M02 A3038 RMK A01 T10061017  RH  092%=      5-min Rain = 0
KSC1 050812Z 15001KT M01/M02 A3038 RMK A01 T10051016  RH  092%=      5-min Rain = 0
KSC1 050813Z 14001KT M01/M02 A3038 RMK A01 T10051017  RH  092%=      5-min Rain = 0
KSC1 050814Z 15002KT M01/M02 A3038 RMK A01 T10051019  RH  090%=      5-min Rain = 0
KSC1 050815Z 15003KT M01/M02 A3037 RMK A01 T10051020  RH  090%=      5-min Rain = 0
KSC1 050816Z 15003KT M00/M02 A3037 RMK A01 T10041019  RH  090%=      5-min Rain = 0
KSC1 050817Z 14004KT M00/M02 A3037 RMK A01 T10041019  RH  090%=      5-min Rain = 0
KSC1 050818Z 14004KT M00/M02 A3037 RMK A01 T10041020  RH  089%=      5-min Rain = 0
KSC1 050819Z 13004KT M00/M02 A3037 RMK A01 T10041021  RH  088%=      5-min Rain = 0
KSC1 050820Z 13004KT M01/M02 A3037 RMK A01 T10051023  RH  088%=      5-min Rain = 0
KSC1 050821Z 13004KT M01/M02 A3037 RMK A01 T10061024  RH  088%=      5-min Rain = 0
KSC1 050822Z 13004KT M01/M02 A3037 RMK A01 T10061024  RH  088%=      5-min Rain = 0
KSC1 050823Z 14004KT M01/M02 A3037 RMK A01 T10061023  RH  088%=      5-min Rain = 0
KSC1 050824Z 14004KT M01/M02 A3037 RMK A01 T10061022  RH  089%=      5-min Rain = 0
KSC1 050825Z 13004KT M01/M02 A3037 RMK A01 T10051020  RH  089%=      5-min Rain = 0
KSC1 050826Z 14004KT M00/M02 A3037 RMK A01 T10041020  RH  089%=      5-min Rain = 0
KSC1 050827Z 13004KT M00/M02 A3037 RMK A01 T10031020  RH  089%=      5-min Rain = 0
KSC1 050828Z 13004KT M00/M02 A3037 RMK A01 T10021019  RH  088%=      5-min Rain = 0
KSC1 050829Z 13004KT M00/M02 A3037 RMK A01 T10021019  RH  088%=      5-min Rain = 0
KSC1 050830Z 13004KT M00/M02 A3037 RMK A01 T10011018  RH  088%=      5-min Rain = 0
KSC1 050831Z 12004KT 00/02 A3037 RMK A01 T00-00-19  RH  088%=      5-min Rain = 0
KSC1 050832Z 12004KT 00/02 A3037 RMK A01 T00000-18  RH  087%=      5-min Rain = 0
KSC1 050833Z 11004KT 00/M02 A3037 RMK A01 T00011019  RH  087%=      5-min Rain = 0
KSC1 050834Z 11004KT 00/M02 A3037 RMK A01 T00011020  RH  086%=      5-min Rain = 0
KSC1 050835Z 11004KT 00/M02 A3037 RMK A01 T00011021  RH  085%=      5-min Rain = 0
KSC1 050836Z 11004KT 00/02 A3037 RMK A01 T00000-21  RH  086%=      5-min Rain = 0
KSC1 050837Z 11005KT 00/02 A3037 RMK A01 T00-00-21  RH  086%=      5-min Rain = 0
KSC1 050838Z 11005KT 00/02 A3037 RMK A01 T00-00-20  RH  086%=      5-min Rain = 0
KSC1 050839Z 11005KT 00/02 A3037 RMK A01 T00-00-21  RH  086%=      5-min Rain = 0
KSC1 050840Z 11005KT 00/02 A3037 RMK A01 T00-00-21  RH  086%=      5-min Rain = 0
KSC1 050841Z 11005KT 00/02 A3037 RMK A01 T00000-21  RH  086%=      5-min Rain = 0
KSC1 050842Z 11005KT 00/02 A3037 RMK A01 T00-00-21  RH  086%=      5-min Rain = 0
KSC1 050843Z 11005KT 00/02 A3037 RMK A01 T00-00-21  RH  086%=      5-min Rain = 0
KSC1 050844Z 11005KT M00/M02 A3037 RMK A01 T10011021  RH  086%=      5-min Rain = 0
KSC1 050845Z 10005KT M00/M02 A3037 RMK A01 T10021022  RH  086%=      5-min Rain = 0
KSC1 050846Z 10005KT M00/M02 A3037 RMK A01 T10021022  RH  086%=      5-min Rain = 0
KSC1 050847Z 10005KT M00/M02 A3037 RMK A01 T10021021  RH  087%=      5-min Rain = 0
KSC1 050848Z 10005KT M00/M02 A3037 RMK A01 T10021021  RH  087%=      5-min Rain = 0
KSC1 050849Z 10005KT M00/M02 A3037 RMK A01 T10021021  RH  087%=      5-min Rain = 0
KSC1 050850Z 10005KT M00/M02 A3037 RMK A01 T10021021  RH  087%=      5-min Rain = 0
KSC1 050851Z 10004KT M00/M02 A3037 RMK A01 T10021021  RH  087%=      5-min Rain = 0
KSC1 050852Z 10004KT M00/M02 A3037 RMK A01 T10021021  RH  087%=      5-min Rain = 0
KSC1 050853Z 10004KT M00/M02 A3037 RMK A01 T10021021  RH  087%=      5-min Rain = 0
KSC1 050854Z 10003KT M00/M02 A3037 RMK A01 T10021021  RH  087%=      5-min Rain = 0
KSC1 050855Z 10003KT M00/M02 A3037 RMK A01 T10021021  RH  087%=      5-min Rain = 0
KSC1 050856Z 11003KT M00/M02 A3037 RMK A01 T10021021  RH  087%=      5-min Rain = 0
KSC1 050857Z 11003KT M00/M02 A3037 RMK A01 T10021021  RH  087%=      5-min Rain = 0
KSC1 050858Z 11003KT M00/M02 A3037 RMK A01 T10021021  RH  087%=      5-min Rain = 0
KSC1 050859Z 11003KT M00/M02 A3037 RMK A01 T10021020  RH  087%=      5-min Rain = 0
KSC1 050900Z 11003KT M00/M02 A3037 RMK A01 T10021020  RH  087%=      5-min Rain = 0
KSC1 050901Z 11004KT M00/M02 A3037 RMK A01 T10011020  RH  087%=      5-min Rain = 0
KSC1 050902Z 11004KT M00/M02 A3037 RMK A01 T10011021  RH  087%=      5-min Rain = 0
KSC1 050903Z 10003KT M00/M02 A3037 RMK A01 T10021023  RH  086%=      5-min Rain = 0
KSC1 050904Z 10003KT M00/M03 A3037 RMK A01 T10041027  RH  085%=      5-min Rain = 0
KSC1 050905Z 10003KT M01/M03 A3037 RMK A01 T10061029  RH  084%=      5-min Rain = 0
KSC1 050906Z 10002KT M01/M03 A3037 RMK A01 T10071029  RH  085%=      5-min Rain = 0
KSC1 050907Z 11003KT M01/M03 A3037 RMK A01 T10081029  RH  085%=      5-min Rain = 0
KSC1 050908Z 10003KT M01/M03 A3037 RMK A01 T10091029  RH  086%=      5-min Rain = 0
KSC1 050909Z 10003KT M01/M03 A3036 RMK A01 T10101029  RH  087%=      5-min Rain = 0
KSC1 050910Z 10004KT M01/M03 A3036 RMK A01 T10101029  RH  087%=      5-min Rain = 0
KSC1 050911Z 09004KT M01/M03 A3036 RMK A01 T10111029  RH  087%=      5-min Rain = 0
KSC1 050912Z 09004KT M01/M03 A3036 RMK A01 T10111029  RH  088%=      5-min Rain = 0
KSC1 050913Z 09004KT M01/M03 A3036 RMK A01 T10121029  RH  088%=      5-min Rain = 0
KSC1 050914Z 09004KT M01/M03 A3036 RMK A01 T10121028  RH  089%=      5-min Rain = 0
KSC1 050915Z 09004KT M01/M03 A3036 RMK A01 T10121028  RH  089%=      5-min Rain = 0
KSC1 050916Z 08003KT M01/M03 A3036 RMK A01 T10131029  RH  089%=      5-min Rain = 0
KSC1 050917Z 08004KT M01/M03 A3036 RMK A01 T10131029  RH  089%=      5-min Rain = 0
KSC1 050918Z 08004KT M01/M03 A3036 RMK A01 T10141028  RH  090%=      5-min Rain = 0
KSC1 050919Z 08004KT M01/M03 A3036 RMK A01 T10141027  RH  091%=      5-min Rain = 0
KSC1 050920Z 09004KT M01/M03 A3036 RMK A01 T10141027  RH  091%=      5-min Rain = 0
KSC1 050921Z 09003KT M01/M03 A3036 RMK A01 T10141026  RH  092%=      5-min Rain = 0
KSC1 050922Z 09003KT M01/M03 A3036 RMK A01 T10131025  RH  092%=      5-min Rain = 0
KSC1 050923Z 08003KT M01/M03 A3037 RMK A01 T10141026  RH  091%=      5-min Rain = 0
KSC1 050924Z 08003KT M02/M03 A3037 RMK A01 T10151028  RH  091%=      5-min Rain = 0
KSC1 050925Z 08003KT M02/M03 A3037 RMK A01 T10151029  RH  091%=      5-min Rain = 0
KSC1 050926Z 08002KT M02/M03 A3037 RMK A01 T10151027  RH  091%=      5-min Rain = 0
KSC1 050927Z 08002KT M02/M03 A3037 RMK A01 T10151027  RH  092%=      5-min Rain = 0
KSC1 050928Z 08002KT M02/M03 A3037 RMK A01 T10151026  RH  092%=      5-min Rain = 0
KSC1 050929Z 08002KT M02/M03 A3037 RMK A01 T10151026  RH  092%=      5-min Rain = 0
KSC1 050930Z 08002KT M01/M03 A3037 RMK A01 T10141025  RH  092%=      5-min Rain = 0
KSC1 050931Z 08002KT M01/M03 A3037 RMK A01 T10141025  RH  092%=      5-min Rain = 0
KSC1 050932Z 08002KT M01/M03 A3037 RMK A01 T10141025  RH  093%=      5-min Rain = 0
KSC1 050933Z 08002KT M01/M03 A3037 RMK A01 T10141025  RH  092%=      5-min Rain = 0
KSC1 050934Z 09003KT M02/M03 A3037 RMK A01 T10161028  RH  091%=      5-min Rain = 0
KSC1 050935Z 10002KT M02/M03 A3036 RMK A01 T10171030  RH  091%=      5-min Rain = 0
KSC1 050936Z 10002KT M02/M03 A3036 RMK A01 T10171030  RH  091%=      5-min Rain = 0
KSC1 050937Z 11002KT M02/M03 A3036 RMK A01 T10181031  RH  091%=      5-min Rain = 0
KSC1 050938Z 10002KT M02/M03 A3036 RMK A01 T10191032  RH  091%=      5-min Rain = 0
KSC1 050939Z 10002KT M02/M03 A3036 RMK A01 T10191031  RH  092%=      5-min Rain = 0
KSC1 050940Z 11002KT M02/M03 A3036 RMK A01 T10181028  RH  093%=      5-min Rain = 0
KSC1 050941Z 10002KT M02/M03 A3036 RMK A01 T10181028  RH  093%=      5-min Rain = 0
KSC1 050942Z 10002KT M02/M03 A3036 RMK A01 T10191029  RH  093%=      5-min Rain = 0
KSC1 050943Z 11002KT M02/M03 A3036 RMK A01 T10191030  RH  092%=      5-min Rain = 0
KSC1 050944Z 11003KT M02/M03 A3036 RMK A01 T10191030  RH  092%=      5-min Rain = 0
KSC1 050945Z 11003KT M02/M03 A3036 RMK A01 T10191030  RH  093%=      5-min Rain = 0
KSC1 050946Z 11002KT M02/M03 A3036 RMK A01 T10191029  RH  093%=      5-min Rain = 0
KSC1 050947Z 11002KT M02/M03 A3036 RMK A01 T10191030  RH  092%=      5-min Rain = 0
KSC1 050948Z 11002KT M02/M03 A3036 RMK A01 T10201032  RH  092%=      5-min Rain = 0
KSC1 050949Z 11002KT M02/M03 A3036 RMK A01 T10211032  RH  092%=      5-min Rain = 0
KSC1 050950Z 09002KT M02/M03 A3036 RMK A01 T10201030  RH  093%=      5-min Rain = 0
KSC1 050951Z 09002KT M02/M03 A3036 RMK A01 T10201029  RH  093%=      5-min Rain = 0
KSC1 050952Z 09002KT M02/M03 A3036 RMK A01 T10191028  RH  094%=      5-min Rain = 0
KSC1 050953Z 09002KT M02/M03 A3036 RMK A01 T10181027  RH  094%=      5-min Rain = 0
KSC1 050954Z 09002KT M02/M03 A3036 RMK A01 T10181028  RH  093%=      5-min Rain = 0
KSC1 050955Z 10002KT M02/M03 A3035 RMK A01 T10191030  RH  093%=      5-min Rain = 0
KSC1 050956Z 11002KT M02/M03 A3035 RMK A01 T10191029  RH  093%=      5-min Rain = 0
KSC1 050957Z 10002KT M02/M03 A3035 RMK A01 T10201030  RH  093%=      5-min Rain = 0
KSC1 050958Z 10001KT M02/M03 A3035 RMK A01 T10201029  RH  093%=      5-min Rain = 0
KSC1 050959Z 11001KT M02/M03 A3035 RMK A01 T10191028  RH  094%=      5-min Rain = 0
KSC1 051000Z 10001KT M02/M03 A3035 RMK A01 T10191027  RH  094%=      5-min Rain = 0
KSC1 051001Z 09002KT M02/M03 A3035 RMK A01 T10181026  RH  094%=      5-min Rain = 0
KSC1 051002Z 09002KT M02/M03 A3035 RMK A01 T10181026  RH  094%=      5-min Rain = 0
KSC1 051003Z 10002KT M02/M03 A3035 RMK A01 T10201030  RH  093%=      5-min Rain = 0
KSC1 051004Z 11002KT M02/M03 A3035 RMK A01 T10211032  RH  092%=      5-min Rain = 0
KSC1 051005Z 10002KT M02/M03 A3035 RMK A01 T10221032  RH  092%=      5-min Rain = 0
KSC1 051006Z 11002KT M02/M03 A3035 RMK A01 T10211031  RH  093%=      5-min Rain = 0
KSC1 051007Z 11002KT M02/M03 A3035 RMK A01 T10211031  RH  093%=      5-min Rain = 0
KSC1 051008Z 10002KT M02/M03 A3035 RMK A01 T10191028  RH  094%=      5-min Rain = 0
KSC1 051009Z 09002KT M02/M03 A3035 RMK A01 T10181025  RH  095%=      5-min Rain = 0
KSC1 051010Z 09001KT M02/M03 A3035 RMK A01 T10171025  RH  095%=      5-min Rain = 0
KSC1 051011Z 09001KT M02/M03 A3035 RMK A01 T10181027  RH  094%=      5-min Rain = 0
KSC1 051012Z 09001KT M02/M03 A3035 RMK A01 T10191029  RH  093%=      5-min Rain = 0
KSC1 051013Z 10002KT M02/M03 A3035 RMK A01 T10201030  RH  093%=      5-min Rain = 0
KSC1 051014Z 10002KT M02/M03 A3035 RMK A01 T10201029  RH  093%=      5-min Rain = 0
KSC1 051015Z 11002KT M02/M03 A3035 RMK A01 T10191028  RH  094%=      5-min Rain = 0
KSC1 051016Z 12002KT M02/M03 A3035 RMK A01 T10181027  RH  094%=      5-min Rain = 0
KSC1 051017Z 13002KT M02/M03 A3035 RMK A01 T10171025  RH  095%=      5-min Rain = 0
KSC1 051018Z 12002KT M02/M02 A3035 RMK A01 T10161024  RH  095%=      5-min Rain = 0
KSC1 051019Z 12002KT M02/M03 A3035 RMK A01 T10161025  RH  094%=      5-min Rain = 0
KSC1 051020Z 12003KT M02/M03 A3035 RMK A01 T10181029  RH  093%=      5-min Rain = 0
KSC1 051021Z 12002KT M02/M03 A3035 RMK A01 T10191031  RH  092%=      5-min Rain = 0
KSC1 051022Z 12002KT M02/M03 A3035 RMK A01 T10211032  RH  092%=      5-min Rain = 0
KSC1 051023Z 12002KT M02/M04 A3035 RMK A01 T10221035  RH  091%=      5-min Rain = 0
KSC1 051024Z 12002KT M02/M04 A3035 RMK A01 T10231036  RH  091%=      5-min Rain = 0
KSC1 051025Z 12001KT M02/M04 A3035 RMK A01 T10231035  RH  091%=      5-min Rain = 0
KSC1 051026Z 12002KT M02/M04 A3035 RMK A01 T10231035  RH  092%=      5-min Rain = 0
KSC1 051027Z 12002KT M02/M03 A3035 RMK A01 T10231034  RH  092%=      5-min Rain = 0
KSC1 051028Z 12002KT M02/M04 A3035 RMK A01 T10241035  RH  092%=      5-min Rain = 0
KSC1 051029Z 12001KT M02/M03 A3035 RMK A01 T10241034  RH  092%=      5-min Rain = 0
KSC1 051030Z 12001KT M02/M04 A3035 RMK A01 T10241035  RH  093%=      5-min Rain = 0
KSC1 051031Z 12001KT M03/M04 A3035 RMK A01 T10251035  RH  093%=      5-min Rain = 0
KSC1 051032Z 12001KT M03/M04 A3035 RMK A01 T10251035  RH  093%=      5-min Rain = 0
KSC1 051033Z 11002KT M03/M03 A3035 RMK A01 T10251034  RH  094%=      5-min Rain = 0
KSC1 051034Z 12001KT M02/M03 A3035 RMK A01 T10241032  RH  094%=      5-min Rain = 0
KSC1 051035Z 13001KT M02/M03 A3035 RMK A01 T10241032  RH  094%=      5-min Rain = 0
KSC1 051036Z 13001KT M02/M03 A3035 RMK A01 T10241032  RH  094%=      5-min Rain = 0
KSC1 051037Z 13001KT M02/M03 A3035 RMK A01 T10241032  RH  095%=      5-min Rain = 0
KSC1 051038Z 13001KT M02/M03 A3035 RMK A01 T10241031  RH  095%=      5-min Rain = 0
KSC1 051039Z 14001KT M02/M03 A3035 RMK A01 T10231029  RH  095%=      5-min Rain = 0
KSC1 051040Z 13001KT M02/M03 A3035 RMK A01 T10221028  RH  096%=      5-min Rain = 0
KSC1 051041Z 12002KT M02/M03 A3035 RMK A01 T10221029  RH  095%=      5-min Rain = 0
KSC1 051042Z 12002KT M02/M03 A3035 RMK A01 T10231030  RH  095%=      5-min Rain = 0
KSC1 051043Z 11002KT M02/M03 A3035 RMK A01 T10231030  RH  094%=      5-min Rain = 0
KSC1 051044Z 11001KT M02/M03 A3035 RMK A01 T10221030  RH  094%=      5-min Rain = 0
KSC1 051045Z 11001KT M02/M03 A3035 RMK A01 T10221029  RH  095%=      5-min Rain = 0
KSC1 051046Z 10001KT M02/M03 A3035 RMK A01 T10201027  RH  095%=      5-min Rain = 0
KSC1 051047Z 09001KT M02/M03 A3035 RMK A01 T10201026  RH  095%=      5-min Rain = 0
KSC1 051048Z 09001KT M02/M03 A3035 RMK A01 T10201026  RH  095%=      5-min Rain = 0
KSC1 051049Z 09001KT M02/M03 A3035 RMK A01 T10201026  RH  095%=      5-min Rain = 0
KSC1 051050Z 08001KT M02/M03 A3035 RMK A01 T10191026  RH  096%=      5-min Rain = 0
KSC1 051051Z 07001KT M02/M03 A3034 RMK A01 T10191025  RH  096%=      5-min Rain = 0
KSC1 051052Z 08001KT M02/M02 A3034 RMK A01 T10181023  RH  096%=      5-min Rain = 0
KSC1 051053Z 09000KT M02/M02 A3034 RMK A01 T10171022  RH  096%=      5-min Rain = 0
KSC1 051054Z 10001KT M02/M02 A3034 RMK A01 T10171023  RH  096%=      5-min Rain = 0
KSC1 051055Z 09001KT M02/M02 A3034 RMK A01 T10171023  RH  096%=      5-min Rain = 0
KSC1 051056Z 08000KT M02/M02 A3034 RMK A01 T10171023  RH  096%=      5-min Rain = 0
KSC1 051057Z 08000KT M02/M02 A3034 RMK A01 T10171023  RH  096%=      5-min Rain = 0
KSC1 051058Z 07000KT M02/M02 A3034 RMK A01 T10161022  RH  096%=      5-min Rain = 0
KSC1 051059Z 06001KT M02/M02 A3034 RMK A01 T10151021  RH  096%=      5-min Rain = 0
KSC1 051100Z 07001KT M02/M02 A3034 RMK A01 T10151022  RH  095%=      5-min Rain = 0
KSC1 051101Z 08001KT M02/M02 A3034 RMK A01 T10151023  RH  095%=      5-min Rain = 0
KSC1 051102Z 07001KT M02/M02 A3034 RMK A01 T10161023  RH  094%=      5-min Rain = 0
KSC1 051103Z 07001KT M02/M02 A3034 RMK A01 T10161024  RH  094%=      5-min Rain = 0
KSC1 051104Z 06001KT M02/M02 A3034 RMK A01 T10161024  RH  094%=      5-min Rain = 0
KSC1 051105Z 06001KT M02/M02 A3034 RMK A01 T10161024  RH  094%=      5-min Rain = 0
KSC1 051106Z 07001KT M02/M03 A3034 RMK A01 T10161025  RH  094%=      5-min Rain = 0
KSC1 051107Z 05001KT M02/M03 A3034 RMK A01 T10161025  RH  093%=      5-min Rain = 0
KSC1 051108Z 05002KT M02/M03 A3034 RMK A01 T10161025  RH  094%=      5-min Rain = 0
KSC1 051109Z 04003KT M02/M02 A3034 RMK A01 T10151024  RH  094%=      5-min Rain = 0
KSC1 051110Z 05003KT M02/M02 A3034 RMK A01 T10151023  RH  094%=      5-min Rain = 0
KSC1 051111Z 05002KT M01/M02 A3034 RMK A01 T10141023  RH  094%=      5-min Rain = 0
KSC1 051112Z 05002KT M01/M02 A3034 RMK A01 T10141023  RH  094%=      5-min Rain = 0
KSC1 051113Z 06002KT M01/M02 A3034 RMK A01 T10141023  RH  093%=      5-min Rain = 0
KSC1 051114Z 06002KT M01/M02 A3034 RMK A01 T10141024  RH  093%=      5-min Rain = 0
KSC1 051115Z 06002KT M02/M02 A3034 RMK A01 T10151024  RH  093%=      5-min Rain = 0
KSC1 051116Z 06002KT M02/M02 A3034 RMK A01 T10151024  RH  093%=      5-min Rain = 0
KSC1 051117Z 07002KT M02/M02 A3034 RMK A01 T10151024  RH  093%=      5-min Rain = 0
KSC1 051118Z 07002KT M02/M02 A3034 RMK A01 T10151024  RH  093%=      5-min Rain = 0
KSC1 051119Z 07002KT M02/M02 A3034 RMK A01 T10151024  RH  093%=      5-min Rain = 0
KSC1 051120Z 07002KT M02/M02 A3034 RMK A01 T10151024  RH  094%=      5-min Rain = 0
KSC1 051121Z 09001KT M02/M02 A3034 RMK A01 T10151024  RH  094%=      5-min Rain = 0
KSC1 051122Z 09001KT M02/M02 A3034 RMK A01 T10151024  RH  093%=      5-min Rain = 0
KSC1 051123Z 00000KT M02/M03 A3034 RMK A01 T10151025  RH  093%=      5-min Rain = 0
KSC1 051124Z 00000KT M02/M03 A3034 RMK A01 T10151025  RH  093%=      5-min Rain = 0
KSC1 051125Z 00000KT M02/M02 A3034 RMK A01 T10151024  RH  094%=      5-min Rain = 0
KSC1 051126Z 00000KT M01/M02 A3034 RMK A01 T10141023  RH  094%=      5-min Rain = 0
KSC1 051127Z 00000KT M01/M02 A3034 RMK A01 T10141024  RH  094%=      5-min Rain = 0
KSC1 051128Z 00000KT M01/M02 A3034 RMK A01 T10141024  RH  093%=      5-min Rain = 0
KSC1 051129Z 00000KT M01/M02 A3034 RMK A01 T10141024  RH  093%=      5-min Rain = 0
KSC1 051130Z 00000KT M01/M02 A3034 RMK A01 T10141024  RH  093%=      5-min Rain = 0
KSC1 051131Z 00000KT M02/M03 A3034 RMK A01 T10151025  RH  093%=      5-min Rain = 0
KSC1 051132Z 00000KT M02/M03 A3034 RMK A01 T10171028  RH  092%=      5-min Rain = 0
KSC1 051133Z 00000KT M02/M03 A3034 RMK A01 T10181029  RH  092%=      5-min Rain = 0
KSC1 051134Z 00000KT M02/M03 A3034 RMK A01 T10181030  RH  092%=      5-min Rain = 0
KSC1 051135Z 00000KT M02/M03 A3034 RMK A01 T10181028  RH  093%=      5-min Rain = 0
KSC1 051136Z 09000KT M02/M02 A3034 RMK A01 T10161024  RH  095%=      5-min Rain = 0
KSC1 051137Z 15001KT M02/M02 A3034 RMK A01 T10151021  RH  095%=      5-min Rain = 0
KSC1 051138Z 13001KT M01/M02 A3034 RMK A01 T10131020  RH  095%=      5-min Rain = 0
KSC1 051139Z 12001KT M01/M02 A3034 RMK A01 T10131020  RH  095%=      5-min Rain = 0
KSC1 051140Z 12001KT M01/M02 A3034 RMK A01 T10131020  RH  094%=      5-min Rain = 0
KSC1 051141Z 12002KT M01/M02 A3034 RMK A01 T10131022  RH  094%=      5-min Rain = 0
KSC1 051142Z 11002KT M02/M03 A3034 RMK A01 T10151025  RH  092%=      5-min Rain = 0
KSC1 051143Z 09002KT M02/M03 A3034 RMK A01 T10171030  RH  091%=      5-min Rain = 0
KSC1 051144Z 09002KT M02/M03 A3034 RMK A01 T10191032  RH  091%=      5-min Rain = 0
KSC1 051145Z 07001KT M02/M03 A3034 RMK A01 T10171027  RH  093%=      5-min Rain = 0
KSC1 051146Z 07001KT M02/M02 A3034 RMK A01 T10151023  RH  094%=      5-min Rain = 0
KSC1 051147Z 07002KT M01/M02 A3034 RMK A01 T10141022  RH  095%=      5-min Rain = 0
KSC1 051148Z 11002KT M01/M02 A3034 RMK A01 T10141022  RH  094%=      5-min Rain = 0
KSC1 051149Z 08002KT M01/M02 A3034 RMK A01 T10141022  RH  094%=      5-min Rain = 0
KSC1 051150Z 11001KT M01/M02 A3034 RMK A01 T10141023  RH  094%=      5-min Rain = 0
KSC1 051151Z 12002KT M01/M02 A3034 RMK A01 T10141023  RH  094%=      5-min Rain = 0
KSC1 051152Z 12003KT M01/M02 A3034 RMK A01 T10131022  RH  094%=      5-min Rain = 0
KSC1 051153Z 13003KT M01/M02 A3035 RMK A01 T10121021  RH  094%=      5-min Rain = 0
KSC1 051154Z 12002KT M01/M02 A3035 RMK A01 T10111020  RH  094%=      5-min Rain = 0
KSC1 051155Z 12003KT M01/M02 A3035 RMK A01 T10101019  RH  094%=      5-min Rain = 0
KSC1 051156Z 12003KT M01/M02 A3035 RMK A01 T10091019  RH  093%=      5-min Rain = 0
KSC1 051157Z 11003KT M01/M02 A3035 RMK A01 T10081020  RH  092%=      5-min Rain = 0
KSC1 051158Z 11004KT M01/M02 A3035 RMK A01 T10071019  RH  092%=      5-min Rain = 0
KSC1 051159Z 10003KT M01/M02 A3035 RMK A01 T10061020  RH  090%=      5-min Rain = 0
KSC1 051200Z 11003KT M01/M02 A3035 RMK A01 T10061021  RH  090%=      5-min Rain = 0
KSC1 051201Z 11002KT M01/M02 A3035 RMK A01 T10061021  RH  089%=      5-min Rain = 0
KSC1 051202Z 11002KT M01/M02 A3035 RMK A01 T10051021  RH  089%=      5-min Rain = 0
KSC1 051203Z 10002KT M01/M02 A3035 RMK A01 T10051020  RH  090%=      5-min Rain = 0
KSC1 051204Z 09002KT M00/M02 A3035 RMK A01 T10041019  RH  090%=      5-min Rain = 0
KSC1 051205Z 08002KT M00/M02 A3035 RMK A01 T10031019  RH  089%=      5-min Rain = 0
KSC1 051206Z 09002KT M00/M02 A3035 RMK A01 T10031019  RH  089%=      5-min Rain = 0
KSC1 051207Z 08002KT M00/M02 A3035 RMK A01 T10021019  RH  088%=      5-min Rain = 0
KSC1 051208Z 09002KT M00/M02 A3035 RMK A01 T10011019  RH  088%=      5-min Rain = 0
KSC1 051209Z 08002KT 00/02 A3035 RMK A01 T00000-18  RH  087%=      5-min Rain = 0
KSC1 051210Z 08002KT 00/M02 A3035 RMK A01 T00021018  RH  087%=      5-min Rain = 0
KSC1 051211Z 08002KT 00/M02 A3036 RMK A01 T00031017  RH  086%=      5-min Rain = 0
KSC1 051212Z 07002KT 00/M02 A3036 RMK A01 T00041017  RH  085%=      5-min Rain = 0
KSC1 051213Z 08003KT 01/M02 A3036 RMK A01 T00051018  RH  085%=      5-min Rain = 0
KSC1 051214Z 07002KT 01/M02 A3036 RMK A01 T00061018  RH  084%=      5-min Rain = 0
KSC1 051215Z 08003KT 01/M02 A3036 RMK A01 T00071017  RH  084%=      5-min Rain = 0
KSC1 051216Z 07002KT 01/M02 A3036 RMK A01 T00081017  RH  084%=      5-min Rain = 0
KSC1 051217Z 08003KT 01/M02 A3036 RMK A01 T00081018  RH  083%=      5-min Rain = 0
KSC1 051218Z 08003KT 01/M02 A3036 RMK A01 T00081018  RH  083%=      5-min Rain = 0
KSC1 051219Z 08003KT 01/M02 A3036 RMK A01 T00081019  RH  083%=      5-min Rain = 0
KSC1 051220Z 09003KT 01/M02 A3036 RMK A01 T00071019  RH  083%=      5-min Rain = 0
KSC1 051221Z 08003KT 01/M02 A3036 RMK A01 T00071019  RH  083%=      5-min Rain = 0
KSC1 051222Z 09003KT 01/M02 A3036 RMK A01 T00071019  RH  083%=      5-min Rain = 0
KSC1 051223Z 09003KT 01/M02 A3036 RMK A01 T00071019  RH  083%=      5-min Rain = 0
KSC1 051224Z 10003KT 01/M02 A3036 RMK A01 T00071018  RH  083%=      5-min Rain = 0
KSC1 051225Z 10004KT 01/M02 A3036 RMK A01 T00071018  RH  083%=      5-min Rain = 0
KSC1 051226Z 11004KT 01/M02 A3036 RMK A01 T00071019  RH  083%=      5-min Rain = 0
KSC1 051227Z 10003KT 01/M02 A3036 RMK A01 T00071019  RH  083%=      5-min Rain = 0
KSC1 051228Z 09003KT 01/M02 A3036 RMK A01 T00071018  RH  083%=      5-min Rain = 0
KSC1 051229Z 10003KT 01/M02 A3036 RMK A01 T00071018  RH  083%=      5-min Rain = 0
KSC1 051230Z 09003KT 01/M02 A3036 RMK A01 T00071018  RH  083%=      5-min Rain = 0
KSC1 051231Z 08003KT 01/M02 A3036 RMK A01 T00071018  RH  083%=      5-min Rain = 0
KSC1 051232Z 07003KT 01/M02 A3036 RMK A01 T00071018  RH  083%=      5-min Rain = 0
KSC1 051233Z 07003KT 01/M02 A3036 RMK A01 T00071018  RH  083%=      5-min Rain = 0
KSC1 051234Z 07003KT 01/M02 A3036 RMK A01 T00071019  RH  083%=      5-min Rain = 0
KSC1 051235Z 07003KT 01/M02 A3036 RMK A01 T00061020  RH  083%=      5-min Rain = 0
KSC1 051236Z 08003KT 01/M02 A3036 RMK A01 T00061019  RH  083%=      5-min Rain = 0
KSC1 051237Z 08003KT 01/M02 A3036 RMK A01 T00061019  RH  084%=      5-min Rain = 0
KSC1 051238Z 09003KT 01/M02 A3036 RMK A01 T00061019  RH  083%=      5-min Rain = 0
KSC1 051239Z 09003KT 01/M02 A3036 RMK A01 T00051020  RH  083%=      5-min Rain = 0
KSC1 051240Z 10003KT 01/M02 A3036 RMK A01 T00051020  RH  083%=      5-min Rain = 0
KSC1 051241Z 10003KT 01/M02 A3036 RMK A01 T00051019  RH  084%=      5-min Rain = 0
KSC1 051242Z 10003KT 01/M02 A3035 RMK A01 T00051020  RH  083%=      5-min Rain = 0
KSC1 051243Z 09003KT 01/M02 A3035 RMK A01 T00051021  RH  083%=      5-min Rain = 0
KSC1 051244Z 10003KT 00/M02 A3036 RMK A01 T00041022  RH  083%=      5-min Rain = 0
KSC1 051245Z 10003KT 00/M02 A3036 RMK A01 T00021024  RH  083%=      5-min Rain = 0
KSC1 051246Z 10003KT 00/M02 A3036 RMK A01 T00011024  RH  083%=      5-min Rain = 0
KSC1 051247Z 10003KT 00/M02 A3036 RMK A01 T00011022  RH  085%=      5-min Rain = 0
KSC1 051248Z 11003KT 00/M02 A3036 RMK A01 T00011021  RH  085%=      5-min Rain = 0
KSC1 051249Z 10003KT 00/M02 A3035 RMK A01 T00021020  RH  085%=      5-min Rain = 0
KSC1 051250Z 10003KT 00/M02 A3035 RMK A01 T00021021  RH  084%=      5-min Rain = 0
KSC1 051251Z 09003KT 00/M02 A3035 RMK A01 T00021020  RH  085%=      5-min Rain = 0
KSC1 051252Z 09003KT 00/M02 A3035 RMK A01 T00031019  RH  085%=      5-min Rain = 0
KSC1 051253Z 09003KT 00/M02 A3035 RMK A01 T00041019  RH  085%=      5-min Rain = 0
KSC1 051254Z 09003KT 00/M02 A3035 RMK A01 T00041019  RH  085%=      5-min Rain = 0
KSC1 051255Z 08004KT 01/M02 A3035 RMK A01 T00051019  RH  084%=      5-min Rain = 0
KSC1 051256Z 08003KT 01/M02 A3035 RMK A01 T00051019  RH  084%=      5-min Rain = 0
KSC1 051257Z 08003KT 01/M02 A3035 RMK A01 T00051020  RH  083%=      5-min Rain = 0
KSC1 051258Z 08003KT 00/M02 A3035 RMK A01 T00031023  RH  083%=      5-min Rain = 0
KSC1 051259Z 08003KT 00/M02 A3035 RMK A01 T00011023  RH  084%=      5-min Rain = 0
KSC1 051300Z 09003KT 00/02 A3035 RMK A01 T00000-23  RH  084%=      5-min Rain = 0
KSC1 051301Z 09003KT 00/02 A3035 RMK A01 T00-00-23  RH  085%=      5-min Rain = 0
KSC1 051302Z 10003KT 00/02 A3035 RMK A01 T00-00-22  RH  085%=      5-min Rain = 0
KSC1 051303Z 10003KT 00/02 A3036 RMK A01 T00000-21  RH  086%=      5-min Rain = 0
KSC1 051304Z 10003KT 00/M02 A3036 RMK A01 T00011021  RH  085%=      5-min Rain = 0
KSC1 051305Z 10002KT 00/02 A3036 RMK A01 T00000-22  RH  085%=      5-min Rain = 0
KSC1 051306Z 10002KT 00/02 A3036 RMK A01 T00-00-23  RH  085%=      5-min Rain = 0
KSC1 051307Z 09002KT 00/02 A3036 RMK A01 T00000-22  RH  085%=      5-min Rain = 0
KSC1 051308Z 10002KT 00/02 A3036 RMK A01 T00-00-22  RH  085%=      5-min Rain = 0
KSC1 051309Z 10002KT 00/02 A3036 RMK A01 T00-00-23  RH  085%=      5-min Rain = 0
KSC1 051310Z 09002KT M00/M02 A3036 RMK A01 T10021024  RH  085%=      5-min Rain = 0
KSC1 051311Z 09002KT M00/M03 A3036 RMK A01 T10031026  RH  085%=      5-min Rain = 0
KSC1 051312Z 09002KT M00/M03 A3036 RMK A01 T10031026  RH  085%=      5-min Rain = 0
KSC1 051313Z 08002KT M00/M03 A3036 RMK A01 T10041026  RH  085%=      5-min Rain = 0
KSC1 051314Z 07002KT M00/M03 A3036 RMK A01 T10041025  RH  086%=      5-min Rain = 0
KSC1 051315Z 08003KT M01/M03 A3036 RMK A01 T10051025  RH  087%=      5-min Rain = 0
KSC1 051316Z 09003KT M01/M03 A3036 RMK A01 T10061025  RH  087%=      5-min Rain = 0
KSC1 051317Z 09003KT M01/M03 A3036 RMK A01 T10061026  RH  087%=      5-min Rain = 0
KSC1 051318Z 09003KT M01/M03 A3036 RMK A01 T10071027  RH  087%=      5-min Rain = 0
KSC1 051319Z 09003KT M01/M03 A3036 RMK A01 T10091028  RH  087%=      5-min Rain = 0
KSC1 051320Z 09003KT M01/M03 A3036 RMK A01 T10101029  RH  087%=      5-min Rain = 0
KSC1 051321Z 09003KT M01/M03 A3036 RMK A01 T10111030  RH  087%=      5-min Rain = 0
KSC1 051322Z 09003KT M01/M03 A3036 RMK A01 T10111028  RH  088%=      5-min Rain = 0
KSC1 051323Z 09003KT M01/M03 A3036 RMK A01 T10121028  RH  089%=      5-min Rain = 0
KSC1 051324Z 10002KT M01/M03 A3036 RMK A01 T10131028  RH  089%=      5-min Rain = 0
KSC1 051325Z 09003KT M01/M03 A3036 RMK A01 T10131028  RH  090%=      5-min Rain = 0
KSC1 051326Z 10003KT M01/M03 A3036 RMK A01 T10131028  RH  090%=      5-min Rain = 0
KSC1 051327Z 09002KT M01/M03 A3036 RMK A01 T10141028  RH  090%=      5-min Rain = 0
KSC1 051328Z 09002KT M01/M03 A3035 RMK A01 T10141027  RH  091%=      5-min Rain = 0
KSC1 051329Z 09002KT M01/M03 A3036 RMK A01 T10131026  RH  091%=      5-min Rain = 0
KSC1 051330Z 09002KT M01/M03 A3036 RMK A01 T10131026  RH  091%=      5-min Rain = 0
KSC1 051331Z 08002KT M01/M03 A3036 RMK A01 T10131025  RH  092%=      5-min Rain = 0
KSC1 051332Z 08002KT M01/M02 A3036 RMK A01 T10121024  RH  092%=      5-min Rain = 0
KSC1 051333Z 09002KT M01/M02 A3036 RMK A01 T10111023  RH  092%=      5-min Rain = 0
KSC1 051334Z 08002KT M01/M02 A3036 RMK A01 T10101021  RH  092%=      5-min Rain = 0
KSC1 051335Z 07002KT M01/M02 A3036 RMK A01 T10091021  RH  091%=      5-min Rain = 0
KSC1 051336Z 08003KT M01/M02 A3036 RMK A01 T10081021  RH  091%=      5-min Rain = 0
KSC1 051337Z 08003KT M01/M02 A3035 RMK A01 T10081022  RH  090%=      5-min Rain = 0
KSC1 051338Z 08003KT M01/M02 A3035 RMK A01 T10071022  RH  090%=      5-min Rain = 0
KSC1 051339Z 08003KT M01/M02 A3035 RMK A01 T10061021  RH  090%=      5-min Rain = 0
KSC1 051340Z 08004KT M01/M02 A3035 RMK A01 T10051020  RH  089%=      5-min Rain = 0
KSC1 051341Z 08003KT M00/M02 A3035 RMK A01 T10031019  RH  089%=      5-min Rain = 0
KSC1 051342Z 07004KT M00/M02 A3035 RMK A01 T10021019  RH  088%=      5-min Rain = 0
KSC1 051343Z 07004KT M00/M02 A3035 RMK A01 T10011018  RH  088%=      5-min Rain = 0
KSC1 051344Z 07003KT 00/02 A3035 RMK A01 T00000-17  RH  088%=      5-min Rain = 0
KSC1 051345Z 06003KT 00/M02 A3035 RMK A01 T00021017  RH  087%=      5-min Rain = 0
KSC1 051346Z 06003KT 00/M02 A3035 RMK A01 T00021018  RH  086%=      5-min Rain = 0
KSC1 051347Z 06003KT 00/M02 A3035 RMK A01 T00021018  RH  086%=      5-min Rain = 0
KSC1 051348Z 06003KT 00/M02 A3035 RMK A01 T00021019  RH  086%=      5-min Rain = 0
KSC1 051349Z 06002KT 00/M02 A3035 RMK A01 T00021019  RH  086%=      5-min Rain = 0
KSC1 051350Z 06003KT 00/M02 A3035 RMK A01 T00021019  RH  085%=      5-min Rain = 0
KSC1 051351Z 05003KT 00/M02 A3035 RMK A01 T00021019  RH  085%=      5-min Rain = 0
KSC1 051352Z 04003KT 00/M02 A3035 RMK A01 T00021020  RH  085%=      5-min Rain = 0
KSC1 051353Z 04002KT 00/M02 A3035 RMK A01 T00021020  RH  085%=      5-min Rain = 0
KSC1 051354Z 04003KT 00/M02 A3035 RMK A01 T00021021  RH  085%=      5-min Rain = 0
KSC1 051355Z 05003KT 00/M02 A3035 RMK A01 T00011021  RH  085%=      5-min Rain = 0
KSC1 051356Z 05003KT 00/02 A3035 RMK A01 T00000-22  RH  085%=      5-min Rain = 0
KSC1 051357Z 05002KT 00/02 A3035 RMK A01 T00000-21  RH  085%=      5-min Rain = 0
KSC1 051358Z 05002KT 00/02 A3035 RMK A01 T00-00-21  RH  086%=      5-min Rain = 0
KSC1 051359Z 05002KT 00/02 A3035 RMK A01 T00-00-21  RH  086%=      5-min Rain = 0
KSC1 051400Z 06002KT 00/02 A3035 RMK A01 T00-00-21  RH  086%=      5-min Rain = 0
KSC1 051401Z 07002KT 00/02 A3035 RMK A01 T00000-20  RH  086%=      5-min Rain = 0
KSC1 051402Z 07002KT 00/M02 A3035 RMK A01 T00011019  RH  086%=      5-min Rain = 0
KSC1 051403Z 06002KT 00/M02 A3035 RMK A01 T00011019  RH  086%=      5-min Rain = 0
KSC1 051404Z 07002KT 00/M02 A3035 RMK A01 T00021020  RH  086%=      5-min Rain = 0
KSC1 051405Z 07001KT 00/M02 A3035 RMK A01 T00021019  RH  086%=      5-min Rain = 0
KSC1 051406Z 06002KT 00/M02 A3035 RMK A01 T00031018  RH  086%=      5-min Rain = 0
KSC1 051407Z 06003KT 00/M02 A3035 RMK A01 T00031019  RH  085%=      5-min Rain = 0
KSC1 051408Z 04003KT 00/M02 A3035 RMK A01 T00031018  RH  086%=      5-min Rain = 0
KSC1 051409Z 05003KT 00/M02 A3035 RMK A01 T00041017  RH  086%=      5-min Rain = 0
KSC1 051410Z 05003KT 00/M02 A3035 RMK A01 T00041017  RH  086%=      5-min Rain = 0
KSC1 051411Z 05003KT 01/M02 A3035 RMK A01 T00051015  RH  086%=      5-min Rain = 0
KSC1 051412Z 05002KT 01/M02 A3035 RMK A01 T00051015  RH  086%=      5-min Rain = 0
KSC1 051413Z 04002KT 01/M02 A3035 RMK A01 T00061015  RH  086%=      5-min Rain = 0
KSC1 051414Z 04003KT 01/M01 A3035 RMK A01 T00071014  RH  086%=      5-min Rain = 0
KSC1 051415Z 05003KT 01/M01 A3035 RMK A01 T00081013  RH  086%=      5-min Rain = 0
KSC1 051416Z 05002KT 01/M01 A3035 RMK A01 T00081013  RH  086%=      5-min Rain = 0
KSC1 051417Z 06002KT 01/M01 A3035 RMK A01 T00081013  RH  086%=      5-min Rain = 0
KSC1 051418Z 07002KT 01/M01 A3035 RMK A01 T00091012  RH  086%=      5-min Rain = 0
KSC1 051419Z 07002KT 01/M01 A3035 RMK A01 T00091012  RH  086%=      5-min Rain = 0
KSC1 051420Z 07002KT 01/M01 A3035 RMK A01 T00101011  RH  086%=      5-min Rain = 0
KSC1 051421Z 06002KT 01/M01 A3035 RMK A01 T00111011  RH  086%=      5-min Rain = 0
KSC1 051422Z 06002KT 01/M01 A3035 RMK A01 T00111011  RH  085%=      5-min Rain = 0
KSC1 051423Z 05002KT 01/M01 A3035 RMK A01 T00121010  RH  086%=      5-min Rain = 0
KSC1 051424Z 04002KT 01/M01 A3035 RMK A01 T00131009  RH  086%=      5-min Rain = 0
KSC1 051425Z 04002KT 01/M01 A3035 RMK A01 T00141008  RH  085%=      5-min Rain = 0
KSC1 051426Z 05001KT 01/M01 A3035 RMK A01 T00141007  RH  086%=      5-min Rain = 0
KSC1 051427Z 04001KT 02/M01 A3035 RMK A01 T00151006  RH  086%=      5-min Rain = 0
KSC1 051428Z 05001KT 02/M01 A3035 RMK A01 T00161007  RH  085%=      5-min Rain = 0
KSC1 051429Z 05001KT 02/M01 A3035 RMK A01 T00161008  RH  085%=      5-min Rain = 0
KSC1 051430Z 06001KT 02/M01 A3035 RMK A01 T00161007  RH  084%=      5-min Rain = 0
KSC1 051431Z 07002KT 02/M01 A3035 RMK A01 T00161007  RH  085%=      5-min Rain = 0
KSC1 051432Z 10002KT 02/M01 A3035 RMK A01 T00161007  RH  084%=      5-min Rain = 0
KSC1 051433Z 10002KT 02/M01 A3035 RMK A01 T00171007  RH  084%=      5-min Rain = 0
KSC1 051434Z 11003KT 02/M01 A3035 RMK A01 T00171006  RH  085%=      5-min Rain = 0
KSC1 051435Z 12004KT 02/M00 A3035 RMK A01 T00181004  RH  085%=      5-min Rain = 0
KSC1 051436Z 12003KT 02/M00 A3035 RMK A01 T00201001  RH  086%=      5-min Rain = 0
KSC1 051437Z 13003KT 02/00 A3035 RMK A01 T00230001  RH  085%=      5-min Rain = 0
KSC1 051438Z 13003KT 03/00 A3035 RMK A01 T00250001  RH  084%=      5-min Rain = 0
KSC1 051439Z 13004KT 03/00 A3035 RMK A01 T00270000  RH  083%=      5-min Rain = 0
KSC1 051440Z 13003KT 03/00 A3035 RMK A01 T002900-0  RH  081%=      5-min Rain = 0
KSC1 051441Z 13004KT 03/M00 A3035 RMK A01 T00301001  RH  080%=      5-min Rain = 0
KSC1 051442Z 13004KT 03/M00 A3035 RMK A01 T00301002  RH  080%=      5-min Rain = 0
KSC1 051443Z 13003KT 03/M00 A3035 RMK A01 T00311002  RH  079%=      5-min Rain = 0
KSC1 051444Z 13005KT 03/M00 A3035 RMK A01 T00311003  RH  078%=      5-min Rain = 0
KSC1 051445Z 13005KT 03/M00 A3035 RMK A01 T00321003  RH  078%=      5-min Rain = 0
KSC1 051446Z 13004KT 03/M00 A3035 RMK A01 T00321003  RH  078%=      5-min Rain = 0
KSC1 051447Z 12005KT 03/M00 A3035 RMK A01 T00321004  RH  078%=      5-min Rain = 0
KSC1 051448Z 12005KT 03/M00 A3035 RMK A01 T00321004  RH  077%=      5-min Rain = 0
KSC1 051449Z 12004KT 03/M00 A3035 RMK A01 T00321004  RH  077%=      5-min Rain = 0
KSC1 051450Z 12005KT 03/M00 A3035 RMK A01 T00321003  RH  078%=      5-min Rain = 0
KSC1 051451Z 12006KT 03/M00 A3035 RMK A01 T00321004  RH  077%=      5-min Rain = 0
KSC1 051452Z 13006KT 03/M01 A3035 RMK A01 T00331005  RH  076%=      5-min Rain = 0
KSC1 051453Z 12005KT 03/M00 A3035 RMK A01 T00331004  RH  076%=      5-min Rain = 0
KSC1 051454Z 12006KT 03/M00 A3035 RMK A01 T00341004  RH  076%=      5-min Rain = 0
KSC1 051455Z 12005KT 03/M01 A3035 RMK A01 T00341005  RH  076%=      5-min Rain = 0
KSC1 051456Z 12005KT 03/M00 A3035 RMK A01 T00341004  RH  076%=      5-min Rain = 0
KSC1 051457Z 11005KT 04/M00 A3035 RMK A01 T00351004  RH  076%=      5-min Rain = 0
KSC1 051458Z 12006KT 04/M00 A3035 RMK A01 T00351003  RH  076%=      5-min Rain = 0
KSC1 051459Z 12006KT 04/M00 A3035 RMK A01 T00351004  RH  075%=      5-min Rain = 0
KSC1 051500Z 11006KT 04/M01 A3035 RMK A01 T00351005  RH  075%=      5-min Rain = 0
KSC1 051501Z 12005KT 04/M00 A3035 RMK A01 T00361004  RH  075%=      5-min Rain = 0
KSC1 051502Z 10004KT 04/M01 A3035 RMK A01 T00361005  RH  075%=      5-min Rain = 0
KSC1 051503Z 11003KT 04/M00 A3035 RMK A01 T00371003  RH  075%=      5-min Rain = 0
KSC1 051504Z 10004KT 04/M00 A3035 RMK A01 T00371001  RH  076%=      5-min Rain = 0
KSC1 051505Z 11003KT 04/M00 A3035 RMK A01 T00381001  RH  076%=      5-min Rain = 0
KSC1 051506Z 11005KT 04/00 A3036 RMK A01 T004000-0  RH  075%=      5-min Rain = 0
KSC1 051507Z 11006KT 04/M00 A3036 RMK A01 T00421001  RH  074%=      5-min Rain = 0
KSC1 051508Z 12007KT 04/M00 A3036 RMK A01 T00431002  RH  073%=      5-min Rain = 0
KSC1 051509Z 11006KT 04/M00 A3036 RMK A01 T00441003  RH  071%=      5-min Rain = 0
KSC1 051510Z 11007KT 05/M00 A3036 RMK A01 T00451002  RH  071%=      5-min Rain = 0
KSC1 051511Z 12008KT 05/M00 A3036 RMK A01 T00451003  RH  071%=      5-min Rain = 0
KSC1 051512Z 12007KT 05/M00 A3036 RMK A01 T00461004  RH  070%=      5-min Rain = 0
KSC1 051513Z 12006KT 05/M00 A3036 RMK A01 T00461003  RH  071%=      5-min Rain = 0
KSC1 051514Z 12010KT 05/M00 A3036 RMK A01 T00461004  RH  070%=      5-min Rain = 0
KSC1 051515Z 12008KT 05/M01 A3036 RMK A01 T00461006  RH  069%=      5-min Rain = 0
KSC1 051516Z 12009KT 05/M00 A3036 RMK A01 T00461004  RH  070%=      5-min Rain = 0
KSC1 051517Z 12010KT 05/M00 A3036 RMK A01 T00461004  RH  070%=      5-min Rain = 0
KSC1 051518Z 12009KT 05/M01 A3036 RMK A01 T00471005  RH  069%=      5-min Rain = 0
KSC1 051519Z 12010KT 05/M00 A3036 RMK A01 T00471004  RH  069%=      5-min Rain = 0
KSC1 051520Z 12008KT 05/M01 A3036 RMK A01 T00471005  RH  069%=      5-min Rain = 0
KSC1 051521Z 13007KT 05/M00 A3036 RMK A01 T00481004  RH  069%=      5-min Rain = 0
KSC1 051522Z 13008KT 05/M00 A3036 RMK A01 T00491003  RH  069%=      5-min Rain = 0
KSC1 051523Z 13007KT 05/M00 A3036 RMK A01 T00501003  RH  069%=      5-min Rain = 0
KSC1 051524Z 13007KT 05/M00 A3036 RMK A01 T00521002  RH  068%=      5-min Rain = 0
KSC1 051525Z 12008KT 05/M00 A3036 RMK A01 T00531001  RH  068%=      5-min Rain = 0
KSC1 051526Z 12009KT 05/M00 A3036 RMK A01 T00541002  RH  067%=      5-min Rain = 0
KSC1 051527Z 13009KT 05/M00 A3036 RMK A01 T00541003  RH  066%=      5-min Rain = 0
KSC1 051528Z 13010KT 05/M00 A3036 RMK A01 T00541003  RH  066%=      5-min Rain = 0
KSC1 051529Z 13009KT 06/M00 A3036 RMK A01 T00551003  RH  066%=      5-min Rain = 0
KSC1 051530Z 14010KT 06/M00 A3036 RMK A01 T00561003  RH  066%=      5-min Rain = 0
KSC1 051531Z 14009KT 06/M00 A3036 RMK A01 T00561004  RH  065%=      5-min Rain = 0
KSC1 051532Z 13009KT 06/M00 A3036 RMK A01 T00571003  RH  065%=      5-min Rain = 0
KSC1 051533Z 13007KT 06/M00 A3036 RMK A01 T00581003  RH  065%=      5-min Rain = 0
KSC1 051534Z 13008KT 06/M00 A3036 RMK A01 T00601002  RH  065%=      5-min Rain = 0
KSC1 051535Z 13007KT 06/M00 A3036 RMK A01 T00601002  RH  064%=      5-min Rain = 0
KSC1 051536Z 13007KT 06/M00 A3036 RMK A01 T00611003  RH  064%=      5-min Rain = 0
KSC1 051537Z 14008KT 06/M00 A3036 RMK A01 T00611003  RH  063%=      5-min Rain = 0
KSC1 051538Z 12008KT 06/M00 A3036 RMK A01 T00611003  RH  064%=      5-min Rain = 0
KSC1 051539Z 13009KT 06/M00 A3037 RMK A01 T00621003  RH  063%=      5-min Rain = 0
KSC1 051540Z 13009KT 06/M00 A3037 RMK A01 T00631003  RH  063%=      5-min Rain = 0
KSC1 051541Z 13009KT 06/M00 A3037 RMK A01 T00641002  RH  063%=      5-min Rain = 0
KSC1 051542Z 12011KT 06/M00 A3037 RMK A01 T00641003  RH  062%=      5-min Rain = 0
KSC1 051543Z 12012KT 06/M00 A3037 RMK A01 T00641004  RH  062%=      5-min Rain = 0
KSC1 051544Z 12009KT 06/M00 A3037 RMK A01 T00641004  RH  062%=      5-min Rain = 0
KSC1 051545Z 12008KT 06/M00 A3037 RMK A01 T00641004  RH  062%=      5-min Rain = 0
KSC1 051546Z 12010KT 06/M00 A3037 RMK A01 T00641003  RH  062%=      5-min Rain = 0
KSC1 051547Z 12008KT 07/M00 A3036 RMK A01 T00651003  RH  062%=      5-min Rain = 0
KSC1 051548Z 13010KT 07/M00 A3036 RMK A01 T00671002  RH  062%=      5-min Rain = 0
KSC1 051549Z 12010KT 07/M00 A3036 RMK A01 T00671003  RH  061%=      5-min Rain = 0
KSC1 051550Z 13007KT 07/M00 A3036 RMK A01 T00681001  RH  061%=      5-min Rain = 0
KSC1 051551Z 13008KT 07/00 A3036 RMK A01 T00700000  RH  061%=      5-min Rain = 0
KSC1 051552Z 13008KT 07/M00 A3036 RMK A01 T00711001  RH  060%=      5-min Rain = 0
KSC1 051553Z 12008KT 07/00 A3036 RMK A01 T00720000  RH  060%=      5-min Rain = 0
KSC1 051554Z 12010KT 07/M00 A3037 RMK A01 T00731001  RH  059%=      5-min Rain = 0
KSC1 051555Z 11010KT 07/M00 A3037 RMK A01 T00721002  RH  059%=      5-min Rain = 0
KSC1 051556Z 12011KT 07/M00 A3037 RMK A01 T00721001  RH  060%=      5-min Rain = 0
KSC1 051557Z 12010KT 07/M00 A3037 RMK A01 T00721002  RH  059%=      5-min Rain = 0
KSC1 051558Z 14010KT 07/M00 A3036 RMK A01 T00721002  RH  059%=      5-min Rain = 0
KSC1 051559Z 12010KT 07/M00 A3036 RMK A01 T00721003  RH  059%=      5-min Rain = 0
KSC1 051600Z 14008KT 07/M00 A3036 RMK A01 T00721002  RH  059%=      5-min Rain = 0
KSC1 051601Z 12010KT 07/00 A3036 RMK A01 T007400-0  RH  059%=      5-min Rain = 0
KSC1 051602Z 12010KT 08/M00 A3036 RMK A01 T00751001  RH  059%=      5-min Rain = 0
KSC1 051603Z 13008KT 08/00 A3036 RMK A01 T007600-0  RH  058%=      5-min Rain = 0
KSC1 051604Z 13006KT 08/00 A3036 RMK A01 T007800-0  RH  058%=      5-min Rain = 0
KSC1 051605Z 12007KT 08/00 A3036 RMK A01 T00790001  RH  058%=      5-min Rain = 0
KSC1 051606Z 12008KT 08/00 A3036 RMK A01 T00800002  RH  058%=      5-min Rain = 0
KSC1 051607Z 12009KT 08/M00 A3036 RMK A01 T00801001  RH  057%=      5-min Rain = 0
KSC1 051608Z 13008KT 08/M00 A3036 RMK A01 T00781002  RH  057%=      5-min Rain = 0
KSC1 051609Z 13009KT 08/M00 A3036 RMK A01 T00771002  RH  057%=      5-min Rain = 0
KSC1 051610Z 13009KT 08/M00 A3036 RMK A01 T00761002  RH  058%=      5-min Rain = 0
KSC1 051611Z 12010KT 08/M00 A3036 RMK A01 T00761002  RH  058%=      5-min Rain = 0
KSC1 051612Z 13009KT 08/00 A3036 RMK A01 T007800-0  RH  058%=      5-min Rain = 0
KSC1 051613Z 13009KT 08/M00 A3036 RMK A01 T00781001  RH  057%=      5-min Rain = 0
KSC1 051614Z 13008KT 08/M00 A3036 RMK A01 T00771002  RH  057%=      5-min Rain = 0
KSC1 051615Z 12008KT 08/M00 A3036 RMK A01 T00781001  RH  058%=      5-min Rain = 0
KSC1 051616Z 13009KT 08/00 A3036 RMK A01 T00790001  RH  058%=      5-min Rain = 0
KSC1 051617Z 13008KT 08/00 A3036 RMK A01 T007900-0  RH  057%=      5-min Rain = 0
KSC1 051618Z 12007KT 08/00 A3036 RMK A01 T007900-0  RH  057%=      5-min Rain = 0
KSC1 051619Z 13008KT 08/00 A3036 RMK A01 T007900-0  RH  057%=      5-min Rain = 0
KSC1 051620Z 13008KT 08/M00 A3036 RMK A01 T00791001  RH  057%=      5-min Rain = 0
KSC1 051621Z 12008KT 08/M00 A3036 RMK A01 T00781001  RH  057%=      5-min Rain = 0
KSC1 051622Z 12008KT 08/M00 A3036 RMK A01 T00781001  RH  057%=      5-min Rain = 0
KSC1 051623Z 13007KT 08/M00 A3036 RMK A01 T00781001  RH  057%=      5-min Rain = 0
KSC1 051624Z 12011KT 08/M00 A3036 RMK A01 T00791001  RH  057%=      5-min Rain = 0
KSC1 051625Z 12011KT 08/M00 A3036 RMK A01 T00791002  RH  057%=      5-min Rain = 0
KSC1 051626Z 13008KT 08/M00 A3036 RMK A01 T00781003  RH  057%=      5-min Rain = 0
KSC1 051627Z 13007KT 08/M00 A3036 RMK A01 T00771003  RH  057%=      5-min Rain = 0
KSC1 051628Z 14008KT 08/M00 A3036 RMK A01 T00771002  RH  057%=      5-min Rain = 0
KSC1 051629Z 13009KT 08/M00 A3036 RMK A01 T00771003  RH  057%=      5-min Rain = 0
KSC1 051630Z 12007KT 08/M00 A3036 RMK A01 T00771003  RH  057%=      5-min Rain = 0
KSC1 051631Z 12009KT 08/M00 A3036 RMK A01 T00781002  RH  057%=      5-min Rain = 0
KSC1 051632Z 15006KT 08/M00 A3036 RMK A01 T00781002  RH  057%=      5-min Rain = 0
KSC1 051633Z 14009KT 08/00 A3036 RMK A01 T007900-0  RH  057%=      5-min Rain = 0
KSC1 051634Z 14008KT 08/M00 A3036 RMK A01 T00801001  RH  057%=      5-min Rain = 0
KSC1 051635Z 14010KT 08/M00 A3036 RMK A01 T00801001  RH  057%=      5-min Rain = 0
KSC1 051636Z 15009KT 08/M00 A3036 RMK A01 T00801001  RH  056%=      5-min Rain = 0
KSC1 051637Z 14007KT 08/M00 A3036 RMK A01 T00801001  RH  057%=      5-min Rain = 0
KSC1 051638Z 15010KT 08/M00 A3036 RMK A01 T00801001  RH  057%=      5-min Rain = 0
KSC1 051639Z 15008KT 08/M00 A3036 RMK A01 T00801001  RH  057%=      5-min Rain = 0
KSC1 051640Z 12007KT 08/00 A3036 RMK A01 T00800000  RH  057%=      5-min Rain = 0
KSC1 051641Z 12007KT 08/00 A3036 RMK A01 T00820001  RH  057%=      5-min Rain = 0
KSC1 051642Z 12008KT 08/00 A3036 RMK A01 T00820001  RH  056%=      5-min Rain = 0
KSC1 051643Z 13008KT 08/00 A3036 RMK A01 T00830001  RH  056%=      5-min Rain = 0
KSC1 051644Z 13009KT 08/00 A3036 RMK A01 T008300-0  RH  056%=      5-min Rain = 0
KSC1 051645Z 12008KT 08/M00 A3036 RMK A01 T00821001  RH  056%=      5-min Rain = 0
KSC1 051646Z 13008KT 08/M00 A3036 RMK A01 T00821001  RH  056%=      5-min Rain = 0
KSC1 051647Z 14009KT 08/00 A3036 RMK A01 T008200-0  RH  056%=      5-min Rain = 0
KSC1 051648Z 14006KT 08/00 A3036 RMK A01 T00830000  RH  056%=      5-min Rain = 0
KSC1 051649Z 14005KT 08/00 A3036 RMK A01 T00840003  RH  057%=      5-min Rain = 0
KSC1 051650Z 12009KT 09/00 A3036 RMK A01 T00860002  RH  056%=      5-min Rain = 0
KSC1 051651Z 12007KT 08/M00 A3036 RMK A01 T00841001  RH  055%=      5-min Rain = 0
KSC1 051652Z 12009KT 08/00 A3036 RMK A01 T00830000  RH  056%=      5-min Rain = 0
KSC1 051653Z 12010KT 08/00 A3035 RMK A01 T00840000  RH  056%=      5-min Rain = 0
KSC1 051654Z 13010KT 08/00 A3035 RMK A01 T008400-0  RH  056%=      5-min Rain = 0
KSC1 051655Z 13009KT 08/00 A3035 RMK A01 T008400-0  RH  055%=      5-min Rain = 0
KSC1 051656Z 14008KT 08/00 A3035 RMK A01 T00830000  RH  056%=      5-min Rain = 0
KSC1 051657Z 13008KT 08/00 A3035 RMK A01 T00840000  RH  056%=      5-min Rain = 0
KSC1 051658Z 13008KT 09/00 A3035 RMK A01 T00850000  RH  055%=      5-min Rain = 0
KSC1 051659Z 13009KT 08/M00 A3035 RMK A01 T00841001  RH  055%=      5-min Rain = 0
KSC1 051700Z 12007KT 08/00 A3035 RMK A01 T00840000  RH  056%=      5-min Rain = 0
KSC1 051701Z 13006KT 08/00 A3035 RMK A01 T00840001  RH  056%=      5-min Rain = 0
KSC1 051702Z 13004KT 09/00 A3035 RMK A01 T00850002  RH  056%=      5-min Rain = 0
KSC1 051703Z 13007KT 09/00 A3035 RMK A01 T00870003  RH  056%=      5-min Rain = 0
KSC1 051704Z 12008KT 09/00 A3035 RMK A01 T00870002  RH  055%=      5-min Rain = 0
KSC1 051705Z 13010KT 09/00 A3035 RMK A01 T00880003  RH  055%=      5-min Rain = 0
KSC1 051706Z 14008KT 09/00 A3035 RMK A01 T00870001  RH  055%=      5-min Rain = 0
KSC1 051707Z 15007KT 09/00 A3035 RMK A01 T00870000  RH  055%=      5-min Rain = 0
KSC1 051708Z 14007KT 09/00 A3035 RMK A01 T00860000  RH  055%=      5-min Rain = 0
KSC1 051709Z 13007KT 09/00 A3035 RMK A01 T00860001  RH  055%=      5-min Rain = 0
KSC1 051710Z 12007KT 09/00 A3035 RMK A01 T00870002  RH  055%=      5-min Rain = 0
KSC1 051711Z 13006KT 09/00 A3035 RMK A01 T00880003  RH  055%=      5-min Rain = 0
KSC1 051712Z 12009KT 09/00 A3035 RMK A01 T00890003  RH  055%=      5-min Rain = 0
KSC1 051713Z 13009KT 09/00 A3035 RMK A01 T00890002  RH  055%=      5-min Rain = 0
KSC1 051714Z 12009KT 09/00 A3035 RMK A01 T00880002  RH  055%=      5-min Rain = 0
KSC1 051715Z 13008KT 09/00 A3035 RMK A01 T00880002  RH  055%=      5-min Rain = 0
KSC1 051716Z 14009KT 09/00 A3034 RMK A01 T00880002  RH  055%=      5-min Rain = 0
KSC1 051717Z 13008KT 09/00 A3034 RMK A01 T00880003  RH  055%=      5-min Rain = 0
KSC1 051718Z 13009KT 09/00 A3034 RMK A01 T00890003  RH  055%=      5-min Rain = 0
KSC1 051719Z 13008KT 09/00 A3034 RMK A01 T00890002  RH  055%=      5-min Rain = 0
KSC1 051720Z 12008KT 09/00 A3034 RMK A01 T00890003  RH  055%=      5-min Rain = 0
KSC1 051721Z 13006KT 09/00 A3034 RMK A01 T00880003  RH  055%=      5-min Rain = 0
KSC1 051722Z 14006KT 09/00 A3034 RMK A01 T00890004  RH  055%=      5-min Rain = 0
KSC1 051723Z 13006KT 09/01 A3034 RMK A01 T00900005  RH  055%=      5-min Rain = 0
KSC1 051724Z 14008KT 09/01 A3034 RMK A01 T00920006  RH  055%=      5-min Rain = 0
KSC1 051725Z 14007KT 09/00 A3034 RMK A01 T00920003  RH  054%=      5-min Rain = 0
KSC1 051726Z 13007KT 09/00 A3034 RMK A01 T00910003  RH  054%=      5-min Rain = 0
KSC1 051727Z 13008KT 09/00 A3034 RMK A01 T00900002  RH  054%=      5-min Rain = 0
KSC1 051728Z 13008KT 09/00 A3034 RMK A01 T00900002  RH  054%=      5-min Rain = 0
KSC1 051729Z 12007KT 09/00 A3034 RMK A01 T00900003  RH  055%=      5-min Rain = 0
KSC1 051730Z 13007KT 09/00 A3034 RMK A01 T00900003  RH  054%=      5-min Rain = 0
KSC1 051731Z 11007KT 09/00 A3034 RMK A01 T00900003  RH  054%=      5-min Rain = 0
KSC1 051732Z 13007KT 09/01 A3034 RMK A01 T00910005  RH  055%=      5-min Rain = 0
KSC1 051733Z 14007KT 09/00 A3033 RMK A01 T00920004  RH  054%=      5-min Rain = 0
KSC1 051734Z 14007KT 09/00 A3033 RMK A01 T00920004  RH  054%=      5-min Rain = 0
KSC1 051735Z 15006KT 09/00 A3033 RMK A01 T00930004  RH  054%=      5-min Rain = 0
KSC1 051736Z 13008KT 09/01 A3033 RMK A01 T00930005  RH  054%=      5-min Rain = 0
KSC1 051737Z 14010KT 09/01 A3033 RMK A01 T00940006  RH  054%=      5-min Rain = 0
KSC1 051738Z 15008KT 09/00 A3033 RMK A01 T00940003  RH  053%=      5-min Rain = 0
KSC1 051739Z 15007KT 09/00 A3033 RMK A01 T00930004  RH  053%=      5-min Rain = 0
KSC1 051740Z 15006KT 09/00 A3033 RMK A01 T00930003  RH  054%=      5-min Rain = 0
KSC1 051741Z 14008KT 09/01 A3033 RMK A01 T00940007  RH  055%=      5-min Rain = 0
KSC1 051742Z 13007KT 10/01 A3033 RMK A01 T00960005  RH  053%=      5-min Rain = 0
KSC1 051743Z 12009KT 10/00 A3033 RMK A01 T00950004  RH  053%=      5-min Rain = 0
KSC1 051744Z 13009KT 09/00 A3033 RMK A01 T00940004  RH  053%=      5-min Rain = 0
KSC1 051745Z 13007KT 09/00 A3033 RMK A01 T00930003  RH  053%=      5-min Rain = 0
KSC1 051746Z 12009KT 09/00 A3033 RMK A01 T00930004  RH  054%=      5-min Rain = 0
KSC1 051747Z 12008KT 09/00 A3033 RMK A01 T00920003  RH  054%=      5-min Rain = 0
KSC1 051748Z 12006KT 09/00 A3033 RMK A01 T00930004  RH  054%=      5-min Rain = 0
KSC1 051749Z 13006KT 09/01 A3032 RMK A01 T00940006  RH  054%=      5-min Rain = 0
KSC1 051750Z 12009KT 10/01 A3032 RMK A01 T00970008  RH  054%=      5-min Rain = 0
KSC1 051751Z 12009KT 10/01 A3032 RMK A01 T00970007  RH  053%=      5-min Rain = 0
KSC1 051752Z 13007KT 10/01 A3032 RMK A01 T00970005  RH  053%=      5-min Rain = 0
KSC1 051753Z 13007KT 10/01 A3032 RMK A01 T00960005  RH  053%=      5-min Rain = 0
KSC1 051754Z 13009KT 10/01 A3032 RMK A01 T00970006  RH  053%=      5-min Rain = 0
KSC1 051755Z 12008KT 10/01 A3032 RMK A01 T00970006  RH  053%=      5-min Rain = 0
KSC1 051756Z 13008KT 10/01 A3032 RMK A01 T00980006  RH  053%=      5-min Rain = 0
KSC1 051757Z 13007KT 10/01 A3032 RMK A01 T00980006  RH  053%=      5-min Rain = 0
KSC1 051758Z 14008KT 10/01 A3032 RMK A01 T00980005  RH  052%=      5-min Rain = 0
KSC1 051759Z 14009KT 10/01 A3032 RMK A01 T00970005  RH  053%=      5-min Rain = 0
KSC1 051800Z 14008KT 10/00 A3032 RMK A01 T00960004  RH  053%=      5-min Rain = 0
KSC1 051801Z 13005KT 10/00 A3032 RMK A01 T00950004  RH  053%=      5-min Rain = 0
KSC1 051802Z 13008KT 10/01 A3032 RMK A01 T00950005  RH  053%=      5-min Rain = 0
KSC1 051803Z 14010KT 10/01 A3031 RMK A01 T00970006  RH  053%=      5-min Rain = 0
KSC1 051804Z 14009KT 10/01 A3031 RMK A01 T00970005  RH  053%=      5-min Rain = 0
KSC1 051805Z 14007KT 10/01 A3031 RMK A01 T00970005  RH  053%=      5-min Rain = 0
KSC1 051806Z 13007KT 10/01 A3031 RMK A01 T00980006  RH  053%=      5-min Rain = 0
KSC1 051807Z 12011KT 10/01 A3031 RMK A01 T00990007  RH  053%=      5-min Rain = 0
KSC1 051808Z 13009KT 10/01 A3031 RMK A01 T00990005  RH  052%=      5-min Rain = 0
KSC1 051809Z 14009KT 10/01 A3031 RMK A01 T00990006  RH  052%=      5-min Rain = 0
KSC1 051810Z 14007KT 10/01 A303 RMK A01 T00990006  RH  052%=      5-min Rain = 0
KSC1 051811Z 12009KT 10/01 A303 RMK A01 T01000007  RH  053%=      5-min Rain = 0
KSC1 051812Z 13009KT 10/01 A303 RMK A01 T01010007  RH  052%=      5-min Rain = 0
KSC1 051813Z 14008KT 10/01 A303 RMK A01 T01000005  RH  052%=      5-min Rain = 0
KSC1 051814Z 13007KT 10/01 A303 RMK A01 T01000007  RH  052%=      5-min Rain = 0
KSC1 051815Z 11010KT 10/01 A303 RMK A01 T01010008  RH  052%=      5-min Rain = 0
KSC1 051816Z 13007KT 10/01 A303 RMK A01 T01010007  RH  052%=      5-min Rain = 0
KSC1 051817Z 12009KT 10/01 A3029 RMK A01 T01020008  RH  052%=      5-min Rain = 0
KSC1 051818Z 12009KT 10/01 A3029 RMK A01 T01030007  RH  051%=      5-min Rain = 0
KSC1 051819Z 12009KT 10/01 A3029 RMK A01 T01020007  RH  052%=      5-min Rain = 0
KSC1 051820Z 13009KT 10/01 A3029 RMK A01 T01020007  RH  052%=      5-min Rain = 0
KSC1 051821Z 14006KT 10/01 A3029 RMK A01 T01020007  RH  052%=      5-min Rain = 0
KSC1 051822Z 14006KT 10/01 A3029 RMK A01 T01030008  RH  052%=      5-min Rain = 0
KSC1 051823Z 13007KT 11/01 A3029 RMK A01 T01050009  RH  052%=      5-min Rain = 0
KSC1 051824Z 12006KT 11/01 A3029 RMK A01 T01060010  RH  051%=      5-min Rain = 0
KSC1 051825Z 12007KT 11/01 A3029 RMK A01 T01070009  RH  051%=      5-min Rain = 0
KSC1 051826Z 12006KT 11/01 A3029 RMK A01 T01070009  RH  051%=      5-min Rain = 0
KSC1 051827Z 13007KT 11/01 A3029 RMK A01 T01090010  RH  051%=      5-min Rain = 0
KSC1 051828Z 13007KT 11/01 A3029 RMK A01 T01090010  RH  050%=      5-min Rain = 0
KSC1 051829Z 14009KT 11/01 A3029 RMK A01 T01100010  RH  050%=      5-min Rain = 0
KSC1 051830Z 13009KT 11/01 A3029 RMK A01 T01100009  RH  050%=      5-min Rain = 0
KSC1 051831Z 13008KT 11/01 A3029 RMK A01 T01100010  RH  050%=      5-min Rain = 0
KSC1 051832Z 14008KT 11/01 A3029 RMK A01 T01120011  RH  050%=      5-min Rain = 0
KSC1 051833Z 15007KT 11/01 A3029 RMK A01 T01120010  RH  049%=      5-min Rain = 0
KSC1 051834Z 14006KT 11/01 A3029 RMK A01 T01110008  RH  049%=      5-min Rain = 0
KSC1 051835Z 12005KT 11/01 A3029 RMK A01 T01110009  RH  050%=      5-min Rain = 0
KSC1 051836Z 12009KT 11/02 A3029 RMK A01 T01140015  RH  050%=      5-min Rain = 0
KSC1 051837Z 14009KT 12/01 A3029 RMK A01 T01170012  RH  049%=      5-min Rain = 0
KSC1 051838Z 14011KT 12/01 A3028 RMK A01 T01170012  RH  049%=      5-min Rain = 0
KSC1 051839Z 13010KT 12/01 A3028 RMK A01 T01180013  RH  049%=      5-min Rain = 0
KSC1 051840Z 13010KT 12/01 A3028 RMK A01 T01170010  RH  048%=      5-min Rain = 0
KSC1 051841Z 11008KT 12/01 A3028 RMK A01 T01160010  RH  048%=      5-min Rain = 0
KSC1 051842Z 14006KT 12/01 A3028 RMK A01 T01150010  RH  048%=      5-min Rain = 0
KSC1 051843Z 15008KT 12/01 A3028 RMK A01 T01160012  RH  049%=      5-min Rain = 0
KSC1 051844Z 14007KT 12/01 A3028 RMK A01 T01180013  RH  049%=      5-min Rain = 0
KSC1 051845Z 15007KT 12/02 A3028 RMK A01 T01210016  RH  049%=      5-min Rain = 0
KSC1 051846Z 16007KT 12/02 A3028 RMK A01 T01230015  RH  048%=      5-min Rain = 0
KSC1 051847Z 14008KT 12/02 A3028 RMK A01 T01230015  RH  047%=      5-min Rain = 0
KSC1 051848Z 12007KT 12/01 A3028 RMK A01 T01230013  RH  047%=      5-min Rain = 0
KSC1 051849Z 16009KT 12/01 A3028 RMK A01 T01220012  RH  047%=      5-min Rain = 0
KSC1 051850Z 17009KT 12/01 A3028 RMK A01 T01220014  RH  048%=      5-min Rain = 0
KSC1 051851Z 12009KT 12/02 A3028 RMK A01 T01240016  RH  048%=      5-min Rain = 0
KSC1 051852Z 12007KT 12/01 A3028 RMK A01 T01240013  RH  046%=      5-min Rain = 0
KSC1 051853Z 12009KT 12/01 A3028 RMK A01 T01240014  RH  047%=      5-min Rain = 0
KSC1 051854Z 13009KT 12/01 A3027 RMK A01 T01220012  RH  047%=      5-min Rain = 0
KSC1 051855Z 12009KT 12/01 A3027 RMK A01 T01220013  RH  047%=      5-min Rain = 0
KSC1 051856Z 13007KT 12/01 A3027 RMK A01 T01220013  RH  047%=      5-min Rain = 0
KSC1 051857Z 13007KT 12/01 A3027 RMK A01 T01230014  RH  047%=      5-min Rain = 0
KSC1 051858Z 12004KT 12/01 A3027 RMK A01 T01230012  RH  047%=      5-min Rain = 0
KSC1 051859Z 11011KT 12/01 A3027 RMK A01 T01220014  RH  047%=      5-min Rain = 0
KSC1 051900Z 11011KT 12/01 A3027 RMK A01 T01220014  RH  048%=      5-min Rain = 0
KSC1 051901Z 14008KT 12/01 A3027 RMK A01 T01230014  RH  047%=      5-min Rain = 0
KSC1 051902Z 14007KT 12/01 A3026 RMK A01 T01230014  RH  047%=      5-min Rain = 0
KSC1 051903Z 13006KT 12/01 A3026 RMK A01 T01230014  RH  047%=      5-min Rain = 0
KSC1 051904Z 12009KT 13/02 A3026 RMK A01 T01250016  RH  047%=      5-min Rain = 0
KSC1 051905Z 13009KT 13/02 A3026 RMK A01 T01270016  RH  047%=      5-min Rain = 0
KSC1 051906Z 14007KT 13/02 A3026 RMK A01 T01260015  RH  047%=      5-min Rain = 0
KSC1 051907Z 12008KT 13/01 A3026 RMK A01 T01250014  RH  047%=      5-min Rain = 0
KSC1 051908Z 12006KT 13/02 A3026 RMK A01 T01250017  RH  048%=      5-min Rain = 0
KSC1 051909Z 12009KT 13/02 A3026 RMK A01 T01290019  RH  047%=      5-min Rain = 0
KSC1 051910Z 12007KT 13/02 A3026 RMK A01 T01280016  RH  046%=      5-min Rain = 0
KSC1 051911Z 12008KT 13/02 A3026 RMK A01 T01280018  RH  047%=      5-min Rain = 0
KSC1 051912Z 13010KT 13/02 A3026 RMK A01 T01290017  RH  046%=      5-min Rain = 0
KSC1 051913Z 12009KT 13/02 A3026 RMK A01 T01280017  RH  047%=      5-min Rain = 0
KSC1 051914Z 12009KT 13/02 A3026 RMK A01 T01290016  RH  046%=      5-min Rain = 0
KSC1 051915Z 13008KT 13/02 A3026 RMK A01 T01280016  RH  046%=      5-min Rain = 0
KSC1 051916Z 13009KT 13/02 A3026 RMK A01 T01260015  RH  047%=      5-min Rain = 0
KSC1 051917Z 13009KT 13/02 A3026 RMK A01 T01260016  RH  047%=      5-min Rain = 0
KSC1 051918Z 13010KT 13/02 A3026 RMK A01 T01260015  RH  047%=      5-min Rain = 0
KSC1 051919Z 12011KT 12/02 A3026 RMK A01 T01240015  RH  047%=      5-min Rain = 0
KSC1 051920Z 12009KT 12/02 A3026 RMK A01 T01240015  RH  047%=      5-min Rain = 0
KSC1 051921Z 11007KT 12/01 A3026 RMK A01 T01220013  RH  047%=      5-min Rain = 0
KSC1 051922Z 13007KT 12/01 A3025 RMK A01 T01210014  RH  048%=      5-min Rain = 0
KSC1 051923Z 13009KT 12/01 A3025 RMK A01 T01210014  RH  048%=      5-min Rain = 0
KSC1 051924Z 14008KT 12/02 A3025 RMK A01 T01210015  RH  048%=      5-min Rain = 0
KSC1 051925Z 13009KT 12/02 A3025 RMK A01 T01220016  RH  048%=      5-min Rain = 0
KSC1 051926Z 14010KT 12/02 A3025 RMK A01 T01230015  RH  048%=      5-min Rain = 0
KSC1 051927Z 15012KT 12/02 A3025 RMK A01 T01230016  RH  048%=      5-min Rain = 0
KSC1 051928Z 13013KT 12/02 A3025 RMK A01 T01220015  RH  048%=      5-min Rain = 0
KSC1 051929Z 13013KT 12/02 A3025 RMK A01 T01220015  RH  048%=      5-min Rain = 0
KSC1 051930Z 13011KT 12/02 A3025 RMK A01 T01210015  RH  048%=      5-min Rain = 0
KSC1 051931Z 15009KT 12/02 A3025 RMK A01 T01210015  RH  048%=      5-min Rain = 0
KSC1 051932Z 14008KT 12/02 A3025 RMK A01 T01210016  RH  049%=      5-min Rain = 0
KSC1 051933Z 15009KT 12/02 A3025 RMK A01 T01220016  RH  048%=      5-min Rain = 0
KSC1 051934Z 13010KT 12/02 A3025 RMK A01 T01220017  RH  049%=      5-min Rain = 0
KSC1 051935Z 14011KT 12/02 A3025 RMK A01 T01230017  RH  048%=      5-min Rain = 0
KSC1 051936Z 14010KT 12/02 A3025 RMK A01 T01240017  RH  048%=      5-min Rain = 0
KSC1 051937Z 14009KT 12/02 A3025 RMK A01 T01230016  RH  048%=      5-min Rain = 0
KSC1 051938Z 15009KT 12/02 A3025 RMK A01 T01220016  RH  048%=      5-min Rain = 0
KSC1 051939Z 15011KT 12/02 A3025 RMK A01 T01230017  RH  048%=      5-min Rain = 0
KSC1 051940Z 16011KT 12/02 A3024 RMK A01 T01230017  RH  048%=      5-min Rain = 0
KSC1 051941Z 15009KT 12/02 A3024 RMK A01 T01230016  RH  048%=      5-min Rain = 0
KSC1 051942Z 15010KT 12/02 A3024 RMK A01 T01220016  RH  048%=      5-min Rain = 0
KSC1 051943Z 14008KT 12/02 A3024 RMK A01 T01210016  RH  048%=      5-min Rain = 0
KSC1 051944Z 14008KT 12/02 A3024 RMK A01 T01220016  RH  048%=      5-min Rain = 0
KSC1 051945Z 13007G12KT 12/02 A3024 RMK A01 T01240020  RH  049%=      5-min Rain = 0
KSC1 051946Z 13011KT 13/02 A3024 RMK A01 T01260019  RH  048%=      5-min Rain = 0
KSC1 051947Z 13008KT 13/02 A3024 RMK A01 T01270018  RH  047%=      5-min Rain = 0
KSC1 051948Z 12011KT 13/02 A3023 RMK A01 T01280020  RH  048%=      5-min Rain = 0
KSC1 051949Z 12009KT 13/02 A3023 RMK A01 T01300020  RH  047%=      5-min Rain = 0
KSC1 051950Z 11009KT 13/02 A3023 RMK A01 T01300020  RH  047%=      5-min Rain = 0
KSC1 051951Z 12010KT 13/02 A3023 RMK A01 T01310020  RH  047%=      5-min Rain = 0
KSC1 051952Z 13008KT 13/02 A3023 RMK A01 T01300018  RH  046%=      5-min Rain = 0
KSC1 051953Z 12010KT 13/02 A3023 RMK A01 T01310021  RH  047%=      5-min Rain = 0
KSC1 051954Z 13012KT 14/02 A3023 RMK A01 T01350023  RH  046%=      5-min Rain = 0
KSC1 051955Z 12012KT 14/02 A3023 RMK A01 T01370021  RH  046%=      5-min Rain = 0
KSC1 051956Z 15009KT 14/02 A3023 RMK A01 T01370021  RH  046%=      5-min Rain = 0
KSC1 051957Z 13009KT 14/02 A3023 RMK A01 T01360020  RH  045%=      5-min Rain = 0
KSC1 051958Z 14009KT 13/02 A3023 RMK A01 T01340018  RH  045%=      5-min Rain = 0
KSC1 051959Z 15011KT 13/02 A3023 RMK A01 T01330018  RH  046%=      5-min Rain = 0
KSC1 052000Z 12012KT 13/02 A3023 RMK A01 T01320019  RH  046%=      5-min Rain = 0
KSC1 052001Z 13013KT 13/02 A3023 RMK A01 T01330019  RH  046%=      5-min Rain = 0
KSC1 052002Z 14010KT 13/02 A3023 RMK A01 T01330018  RH  046%=      5-min Rain = 0
KSC1 052003Z 14009KT 13/02 A3023 RMK A01 T01310019  RH  046%=      5-min Rain = 0
KSC1 052004Z 15009KT 13/02 A3023 RMK A01 T01300018  RH  046%=      5-min Rain = 0
KSC1 052005Z 15008KT 13/02 A3022 RMK A01 T01280016  RH  046%=      5-min Rain = 0
KSC1 052006Z 11012KT 13/02 A3022 RMK A01 T01270017  RH  047%=      5-min Rain = 0
KSC1 052007Z 12014KT 13/02 A3022 RMK A01 T01270018  RH  047%=      5-min Rain = 0
KSC1 052008Z 13012KT 13/02 A3022 RMK A01 T01250017  RH  047%=      5-min Rain = 0
KSC1 052009Z 13012KT 12/02 A3022 RMK A01 T01240016  RH  048%=      5-min Rain = 0
KSC1 052010Z 13010KT 12/02 A3022 RMK A01 T01240017  RH  048%=      5-min Rain = 0
KSC1 052011Z 13012KT 12/02 A3022 RMK A01 T01240017  RH  048%=      5-min Rain = 0
KSC1 052012Z 15011KT 12/02 A3022 RMK A01 T01240017  RH  048%=      5-min Rain = 0
KSC1 052013Z 14010KT 12/02 A3022 RMK A01 T01240018  RH  048%=      5-min Rain = 0
KSC1 052014Z 14009KT 13/02 A3022 RMK A01 T01250020  RH  048%=      5-min Rain = 0
KSC1 052015Z 13010KT 13/02 A3022 RMK A01 T01260019  RH  048%=      5-min Rain = 0
KSC1 052016Z 14011KT 13/02 A3022 RMK A01 T01270019  RH  048%=      5-min Rain = 0
KSC1 052017Z 14012KT 13/02 A3022 RMK A01 T01260019  RH  048%=      5-min Rain = 0
KSC1 052018Z 14011KT 13/02 A3022 RMK A01 T01260019  RH  048%=      5-min Rain = 0
KSC1 052019Z 14010KT 13/02 A3022 RMK A01 T01260019  RH  048%=      5-min Rain = 0
KSC1 052020Z 14009KT 13/02 A3022 RMK A01 T01260019  RH  048%=      5-min Rain = 0
KSC1 052021Z 14009KT 13/02 A3022 RMK A01 T01270021  RH  048%=      5-min Rain = 0
KSC1 052022Z 14009KT 13/02 A3021 RMK A01 T01280020  RH  048%=      5-min Rain = 0
KSC1 052023Z 12014KT 13/02 A3021 RMK A01 T01280020  RH  048%=      5-min Rain = 0
KSC1 052024Z 13010KT 13/02 A3021 RMK A01 T01280022  RH  048%=      5-min Rain = 0
KSC1 052025Z 12008KT 13/02 A3021 RMK A01 T01280021  RH  048%=      5-min Rain = 0
KSC1 052026Z 14011KT 13/02 A3021 RMK A01 T01290022  RH  048%=      5-min Rain = 0
KSC1 052027Z 15013KT 13/02 A3021 RMK A01 T01300023  RH  048%=      5-min Rain = 0
KSC1 052028Z 14012KT 13/02 A3021 RMK A01 T01300023  RH  048%=      5-min Rain = 0
KSC1 052029Z 13010KT 13/02 A3021 RMK A01 T01300023  RH  048%=      5-min Rain = 0
KSC1 052030Z 14012KT 13/02 A3021 RMK A01 T01310023  RH  048%=      5-min Rain = 0
KSC1 052031Z 16010KT 13/02 A302 RMK A01 T01310024  RH  048%=      5-min Rain = 0
KSC1 052032Z 15008KT 13/02 A302 RMK A01 T01310024  RH  048%=      5-min Rain = 0
KSC1 052033Z 15010KT 13/03 A302 RMK A01 T01330026  RH  048%=      5-min Rain = 0
KSC1 052034Z 15012KT 13/03 A302 RMK A01 T01340026  RH  048%=      5-min Rain = 0
KSC1 052035Z 15016KT 13/03 A302 RMK A01 T01340027  RH  048%=      5-min Rain = 0
KSC1 052036Z 15013KT 13/03 A302 RMK A01 T01330027  RH  048%=      5-min Rain = 0
KSC1 052037Z 15013KT 13/03 A302 RMK A01 T01330028  RH  049%=      5-min Rain = 0
KSC1 052038Z 16013G18KT 13/03 A302 RMK A01 T01330028  RH  049%=      5-min Rain = 0
KSC1 052039Z 16013KT 13/03 A302 RMK A01 T01320028  RH  049%=      5-min Rain = 0
KSC1 052040Z 16014KT 13/03 A302 RMK A01 T01320027  RH  049%=      5-min Rain = 0
KSC1 052041Z 15013KT 13/03 A302 RMK A01 T01330027  RH  049%=      5-min Rain = 0
KSC1 052042Z 14010KT 13/03 A302 RMK A01 T01330029  RH  049%=      5-min Rain = 0
KSC1 052043Z 14011KT 14/03 A302 RMK A01 T01350030  RH  049%=      5-min Rain = 0
KSC1 052044Z 13009KT 14/03 A302 RMK A01 T01370030  RH  048%=      5-min Rain = 0
KSC1 052045Z 14012KT 14/03 A302 RMK A01 T01390030  RH  048%=      5-min Rain = 0
KSC1 052046Z 15012KT 14/03 A302 RMK A01 T01390029  RH  048%=      5-min Rain = 0
KSC1 052047Z 15013KT 14/03 A302 RMK A01 T01370029  RH  048%=      5-min Rain = 0
KSC1 052048Z 16011KT 14/03 A302 RMK A01 T01370029  RH  048%=      5-min Rain = 0
KSC1 052049Z 16010KT 14/03 A302 RMK A01 T01370030  RH  048%=      5-min Rain = 0
KSC1 052050Z 16010KT 14/03 A302 RMK A01 T01370030  RH  049%=      5-min Rain = 0
KSC1 052051Z 15008KT 14/03 A302 RMK A01 T01370030  RH  049%=      5-min Rain = 0
KSC1 052052Z 14010KT 14/03 A302 RMK A01 T01370031  RH  049%=      5-min Rain = 0
KSC1 052053Z 14009KT 14/03 A3019 RMK A01 T01370031  RH  049%=      5-min Rain = 0
KSC1 052054Z 15009KT 14/03 A3019 RMK A01 T01370032  RH  049%=      5-min Rain = 0
KSC1 052055Z 14007KT 14/03 A3019 RMK A01 T01380032  RH  049%=      5-min Rain = 0
KSC1 052056Z 14014KT 14/03 A302 RMK A01 T01390032  RH  048%=      5-min Rain = 0
KSC1 052057Z 15015KT 14/03 A3019 RMK A01 T01370029  RH  048%=      5-min Rain = 0
KSC1 052058Z 14011KT 14/03 A302 RMK A01 T01350029  RH  049%=      5-min Rain = 0
KSC1 052059Z 14014KT 14/03 A3019 RMK A01 T01350030  RH  049%=      5-min Rain = 0
KSC1 052100Z 14012KT 13/03 A3019 RMK A01 T01340030  RH  049%=      5-min Rain = 0
KSC1 052101Z 17012KT 13/03 A3019 RMK A01 T01340031  RH  050%=      5-min Rain = 0
KSC1 052102Z 16012KT 14/03 A3019 RMK A01 T01350032  RH  050%=      5-min Rain = 0
KSC1 052103Z 15011KT 14/03 A3019 RMK A01 T01350031  RH  049%=      5-min Rain = 0
KSC1 052104Z 13010KT 14/03 A3019 RMK A01 T01350032  RH  050%=      5-min Rain = 0
KSC1 052105Z 14011KT 14/03 A3019 RMK A01 T01360032  RH  050%=      5-min Rain = 0
KSC1 052106Z 15012KT 14/03 A3019 RMK A01 T01360032  RH  049%=      5-min Rain = 0
KSC1 052107Z 15016KT 14/03 A3019 RMK A01 T01360032  RH  050%=      5-min Rain = 0
KSC1 052108Z 16013KT 13/03 A3019 RMK A01 T01340032  RH  050%=      5-min Rain = 0
KSC1 052109Z 16012KT 13/03 A3019 RMK A01 T01330032  RH  050%=      5-min Rain = 0
KSC1 052110Z 16015KT 13/03 A3019 RMK A01 T01320032  RH  051%=      5-min Rain = 0
KSC1 052111Z 15015KT 13/03 A3019 RMK A01 T01320032  RH  051%=      5-min Rain = 0
KSC1 052112Z 14012KT 13/03 A3019 RMK A01 T01310032  RH  051%=      5-min Rain = 0
KSC1 052113Z 14015G20KT 13/03 A3019 RMK A01 T01310032  RH  051%=      5-min Rain = 0
KSC1 052114Z 16015KT 13/03 A3018 RMK A01 T01310032  RH  051%=      5-min Rain = 0
KSC1 052115Z 14013KT 13/03 A3019 RMK A01 T01300033  RH  052%=      5-min Rain = 0
KSC1 052116Z 15015KT 13/03 A3019 RMK A01 T01300033  RH  052%=      5-min Rain = 0
KSC1 052117Z 14012KT 13/03 A3018 RMK A01 T01300032  RH  052%=      5-min Rain = 0
KSC1 052118Z 15011KT 13/03 A3018 RMK A01 T01300032  RH  052%=      5-min Rain = 0
KSC1 052119Z 16010KT 13/03 A3018 RMK A01 T01300033  RH  052%=      5-min Rain = 0
KSC1 052120Z 16009KT 13/03 A3018 RMK A01 T01310034  RH  052%=      5-min Rain = 0
KSC1 052121Z 15012KT 13/03 A3018 RMK A01 T01310034  RH  052%=      5-min Rain = 0
KSC1 052122Z 15012KT 13/03 A3018 RMK A01 T01320034  RH  051%=      5-min Rain = 0
KSC1 052123Z 14011KT 13/03 A3018 RMK A01 T01310034  RH  052%=      5-min Rain = 0
KSC1 052124Z 15013KT 13/03 A3018 RMK A01 T01310033  RH  052%=      5-min Rain = 0
KSC1 052125Z 15012KT 13/03 A3018 RMK A01 T01310034  RH  052%=      5-min Rain = 0
KSC1 052126Z 14014KT 13/03 A3018 RMK A01 T01310034  RH  052%=      5-min Rain = 0
KSC1 052127Z 15013KT 13/04 A3018 RMK A01 T01300035  RH  052%=      5-min Rain = 0
KSC1 052128Z 15013G18KT 13/04 A3018 RMK A01 T01300035  RH  052%=      5-min Rain = 0
KSC1 052129Z 16015KT 13/04 A3018 RMK A01 T01300036  RH  053%=      5-min Rain = 0
KSC1 052130Z 15014KT 13/04 A3018 RMK A01 T01290036  RH  053%=      5-min Rain = 0
KSC1 052131Z 15012G17KT 13/04 A3018 RMK A01 T01290036  RH  053%=      5-min Rain = 0
KSC1 052132Z 15013KT 13/04 A3017 RMK A01 T01290037  RH  053%=      5-min Rain = 0
KSC1 052133Z 15013KT 13/04 A3017 RMK A01 T01290037  RH  053%=      5-min Rain = 0
KSC1 052134Z 16014KT 13/04 A3017 RMK A01 T01290036  RH  053%=      5-min Rain = 0
KSC1 052135Z 15013KT 13/04 A3017 RMK A01 T01280036  RH  053%=      5-min Rain = 0
KSC1 052136Z 16014KT 13/04 A3017 RMK A01 T01280037  RH  054%=      5-min Rain = 0
KSC1 052137Z 16015KT 13/04 A3017 RMK A01 T01280037  RH  054%=      5-min Rain = 0
KSC1 052138Z 14013G18KT 13/04 A3017 RMK A01 T01270037  RH  054%=      5-min Rain = 0
KSC1 052139Z 15010KT 13/04 A3017 RMK A01 T01270037  RH  054%=      5-min Rain = 0
KSC1 052140Z 14013KT 13/04 A3017 RMK A01 T01270037  RH  054%=      5-min Rain = 0
KSC1 052141Z 15014KT 13/04 A3017 RMK A01 T01270037  RH  054%=      5-min Rain = 0
KSC1 052142Z 15012KT 13/04 A3017 RMK A01 T01270036  RH  054%=      5-min Rain = 0
KSC1 052143Z 15011KT 13/04 A3017 RMK A01 T01270037  RH  054%=      5-min Rain = 0
KSC1 052144Z 14016KT 13/04 A3017 RMK A01 T01270037  RH  054%=      5-min Rain = 0
KSC1 052145Z 15013KT 13/04 A3017 RMK A01 T01270036  RH  054%=      5-min Rain = 0
KSC1 052146Z 15013KT 13/04 A3016 RMK A01 T01260037  RH  054%=      5-min Rain = 0
KSC1 052147Z 14013KT 13/04 A3016 RMK A01 T01260037  RH  054%=      5-min Rain = 0
KSC1 052148Z 14013KT 13/04 A3016 RMK A01 T01270037  RH  054%=      5-min Rain = 0
KSC1 052149Z 14011KT 13/04 A3017 RMK A01 T01270036  RH  054%=      5-min Rain = 0
KSC1 052150Z 14013KT 13/04 A3017 RMK A01 T01260036  RH  054%=      5-min Rain = 0
KSC1 052151Z 14011KT 13/04 A3017 RMK A01 T01260036  RH  054%=      5-min Rain = 0
KSC1 052152Z 15010KT 13/04 A3017 RMK A01 T01260036  RH  054%=      5-min Rain = 0
KSC1 052153Z 14012KT 13/04 A3017 RMK A01 T01270037  RH  054%=      5-min Rain = 0
KSC1 052154Z 14012KT 13/04 A3017 RMK A01 T01260037  RH  054%=      5-min Rain = 0
KSC1 052155Z 15009KT 13/04 A3017 RMK A01 T01270037  RH  055%=      5-min Rain = 0
KSC1 052156Z 16010G15KT 13/04 A3017 RMK A01 T01270038  RH  055%=      5-min Rain = 0
KSC1 052157Z 16016KT 13/04 A3016 RMK A01 T01270038  RH  055%=      5-min Rain = 0
KSC1 052158Z 15010KT 13/04 A3016 RMK A01 T01270038  RH  055%=      5-min Rain = 0
KSC1 052159Z 14009KT 13/04 A3017 RMK A01 T01270038  RH  055%=      5-min Rain = 0
KSC1 052200Z 14013G20KT 13/04 A3017 RMK A01 T01270039  RH  055%=      5-min Rain = 0
KSC1 052201Z 14014KT 13/04 A3017 RMK A01 T01270038  RH  055%=      5-min Rain = 0
KSC1 052202Z 15013KT 13/04 A3017 RMK A01 T01270038  RH  055%=      5-min Rain = 0
KSC1 052203Z 15013KT 13/04 A3017 RMK A01 T01270039  RH  055%=      5-min Rain = 0
KSC1 052204Z 14011KT 13/04 A3017 RMK A01 T01270039  RH  055%=      5-min Rain = 0
KSC1 052205Z 15009KT 13/04 A3017 RMK A01 T01270039  RH  055%=      5-min Rain = 0
KSC1 052206Z 14009KT 13/04 A3017 RMK A01 T01270039  RH  055%=      5-min Rain = 0
KSC1 052207Z 14007KT 13/04 A3017 RMK A01 T01270039  RH  055%=      5-min Rain = 0
KSC1 052208Z 15009G14KT 13/04 A3017 RMK A01 T01270040  RH  055%=      5-min Rain = 0
KSC1 052209Z 15011KT 13/04 A3017 RMK A01 T01270039  RH  055%=      5-min Rain = 0
KSC1 052210Z 14009KT 13/04 A3017 RMK A01 T01270039  RH  055%=      5-min Rain = 0
KSC1 052211Z 14010KT 13/04 A3017 RMK A01 T01270039  RH  055%=      5-min Rain = 0
KSC1 052212Z 14009KT 13/04 A3016 RMK A01 T01270039  RH  055%=      5-min Rain = 0
KSC1 052213Z 14011KT 13/04 A3016 RMK A01 T01270039  RH  055%=      5-min Rain = 0
KSC1 052214Z 14012KT 13/04 A3016 RMK A01 T01270039  RH  055%=      5-min Rain = 0
KSC1 052215Z 14009KT 13/04 A3016 RMK A01 T01270039  RH  055%=      5-min Rain = 0
KSC1 052216Z 13008KT 13/04 A3016 RMK A01 T01270039  RH  055%=      5-min Rain = 0
KSC1 052217Z 14009KT 13/04 A3016 RMK A01 T01270039  RH  055%=      5-min Rain = 0
KSC1 052218Z 13008KT 13/04 A3016 RMK A01 T01270039  RH  055%=      5-min Rain = 0
KSC1 052219Z 13010KT 13/04 A3016 RMK A01 T01270040  RH  055%=      5-min Rain = 0
KSC1 052220Z 14009KT 13/04 A3016 RMK A01 T01270039  RH  055%=      5-min Rain = 0
KSC1 052221Z 13012KT 13/04 A3016 RMK A01 T01270039  RH  055%=      5-min Rain = 0
KSC1 052222Z 13011KT 13/04 A3016 RMK A01 T01270039  RH  055%=      5-min Rain = 0
KSC1 052223Z 14009KT 13/04 A3016 RMK A01 T01270039  RH  055%=      5-min Rain = 0
KSC1 052224Z 13012KT 13/04 A3016 RMK A01 T01270039  RH  055%=      5-min Rain = 0
KSC1 052225Z 14012KT 13/04 A3016 RMK A01 T01270039  RH  055%=      5-min Rain = 0
KSC1 052226Z 14011KT 13/04 A3016 RMK A01 T01270039  RH  055%=      5-min Rain = 0
KSC1 052227Z 14010KT 13/04 A3016 RMK A01 T01270039  RH  055%=      5-min Rain = 0
KSC1 052228Z 14009KT 13/04 A3016 RMK A01 T01270040  RH  055%=      5-min Rain = 0
KSC1 052229Z 14009G14KT 13/04 A3016 RMK A01 T01280040  RH  055%=      5-min Rain = 0
KSC1 052230Z 14012KT 13/04 A3016 RMK A01 T01280040  RH  055%=      5-min Rain = 0
KSC1 052231Z 15010KT 13/04 A3016 RMK A01 T01280041  RH  055%=      5-min Rain = 0
KSC1 052232Z 15008KT 13/04 A3016 RMK A01 T01280041  RH  055%=      5-min Rain = 0
KSC1 052233Z 15008KT 13/04 A3016 RMK A01 T01280041  RH  055%=      5-min Rain = 0
KSC1 052234Z 15009KT 13/04 A3016 RMK A01 T01280041  RH  056%=      5-min Rain = 0
KSC1 052235Z 14010KT 13/04 A3017 RMK A01 T01280041  RH  056%=      5-min Rain = 0
KSC1 052236Z 15011KT 13/04 A3017 RMK A01 T01280042  RH  056%=      5-min Rain = 0
KSC1 052237Z 15012KT 13/04 A3017 RMK A01 T01280043  RH  056%=      5-min Rain = 0
KSC1 052238Z 14011KT 13/04 A3017 RMK A01 T01280043  RH  056%=      5-min Rain = 0
KSC1 052239Z 15009KT 13/04 A3017 RMK A01 T01290044  RH  056%=      5-min Rain = 0
KSC1 052240Z 15012KT 13/04 A3017 RMK A01 T01290044  RH  056%=      5-min Rain = 0
KSC1 052241Z 15011G16KT 13/04 A3017 RMK A01 T01290044  RH  056%=      5-min Rain = 0
KSC1 052242Z 15014KT 13/05 A3017 RMK A01 T01290045  RH  057%=      5-min Rain = 0
KSC1 052243Z 15016KT 13/04 A3017 RMK A01 T01280044  RH  057%=      5-min Rain = 0
KSC1 052244Z 15012KT 13/05 A3017 RMK A01 T01280045  RH  057%=      5-min Rain = 0
KSC1 052245Z 14010KT 13/04 A3017 RMK A01 T01280044  RH  057%=      5-min Rain = 0
KSC1 052246Z 14013KT 13/05 A3017 RMK A01 T01270045  RH  057%=      5-min Rain = 0
KSC1 052247Z 14015KT 13/05 A3016 RMK A01 T01270045  RH  057%=      5-min Rain = 0
KSC1 052248Z 14012G17KT 13/05 A3016 RMK A01 T01260045  RH  058%=      5-min Rain = 0
KSC1 052249Z 15010KT 13/05 A3016 RMK A01 T01260045  RH  058%=      5-min Rain = 0
KSC1 052250Z 15012KT 13/05 A3016 RMK A01 T01260046  RH  058%=      5-min Rain = 0
KSC1 052251Z 15016G21KT 13/05 A3016 RMK A01 T01250045  RH  058%=      5-min Rain = 0
KSC1 052252Z 15013KT 12/05 A3016 RMK A01 T01240045  RH  058%=      5-min Rain = 0
KSC1 052253Z 15015KT 12/05 A3016 RMK A01 T01240045  RH  059%=      5-min Rain = 0
KSC1 052254Z 15017KT 12/05 A3016 RMK A01 T01240045  RH  059%=      5-min Rain = 0
KSC1 052255Z 15014G19KT 12/05 A3016 RMK A01 T01240046  RH  059%=      5-min Rain = 0
KSC1 052256Z 15015KT 12/05 A3017 RMK A01 T01240045  RH  059%=      5-min Rain = 0
KSC1 052257Z 16014G19KT 12/05 A3017 RMK A01 T01240045  RH  059%=      5-min Rain = 0
KSC1 052258Z 15013KT 12/05 A3017 RMK A01 T01230045  RH  059%=      5-min Rain = 0
KSC1 052259Z 16011KT 12/05 A3017 RMK A01 T01230045  RH  059%=      5-min Rain = 0
KSC1 052300Z 15014G19KT 12/05 A3017 RMK A01 T01230046  RH  059%=      5-min Rain = 0
KSC1 052301Z 15012KT 12/05 A3017 RMK A01 T01230045  RH  059%=      5-min Rain = 0
KSC1 052302Z 16011KT 12/05 A3017 RMK A01 T01230045  RH  059%=      5-min Rain = 0
KSC1 052303Z 15011KT 12/05 A3017 RMK A01 T01230045  RH  059%=      5-min Rain = 0
KSC1 052304Z 16012KT 12/05 A3016 RMK A01 T01220045  RH  059%=      5-min Rain = 0
KSC1 052305Z 15011G16KT 12/05 A3016 RMK A01 T01220045  RH  059%=      5-min Rain = 0
KSC1 052306Z 15012KT 12/05 A3016 RMK A01 T01220045  RH  059%=      5-min Rain = 0
KSC1 052307Z 15012G18KT 12/05 A3017 RMK A01 T01220045  RH  059%=      5-min Rain = 0
KSC1 052308Z 15010KT 12/05 A3017 RMK A01 T01220045  RH  059%=      5-min Rain = 0
KSC1 052309Z 15013KT 12/04 A3017 RMK A01 T01210044  RH  059%=      5-min Rain = 0
KSC1 052310Z 15011KT 12/04 A3017 RMK A01 T01210044  RH  059%=      5-min Rain = 0
KSC1 052311Z 16011KT 12/04 A3017 RMK A01 T01210044  RH  059%=      5-min Rain = 0
KSC1 052312Z 15011KT 12/04 A3017 RMK A01 T01210044  RH  059%=      5-min Rain = 0
KSC1 052313Z 15009KT 12/04 A3016 RMK A01 T01210044  RH  059%=      5-min Rain = 0
KSC1 052314Z 15009KT 12/04 A3016 RMK A01 T01210044  RH  059%=      5-min Rain = 0
KSC1 052315Z 15009KT 12/04 A3016 RMK A01 T01210044  RH  059%=      5-min Rain = 0
KSC1 052316Z 15010KT 12/04 A3016 RMK A01 T01200044  RH  059%=      5-min Rain = 0
KSC1 052317Z 14007KT 12/04 A3016 RMK A01 T01200044  RH  060%=      5-min Rain = 0
KSC1 052318Z 15007KT 12/04 A3016 RMK A01 T01200044  RH  060%=      5-min Rain = 0
KSC1 052319Z 14009KT 12/04 A3016 RMK A01 T01190044  RH  060%=      5-min Rain = 0
KSC1 052320Z 14009KT 12/04 A3016 RMK A01 T01190044  RH  060%=      5-min Rain = 0
KSC1 052321Z 14010KT 12/04 A3016 RMK A01 T01190044  RH  060%=      5-min Rain = 0
KSC1 052322Z 14009G14KT 12/04 A3016 RMK A01 T01190044  RH  060%=      5-min Rain = 0
KSC1 052323Z 15008KT 12/04 A3016 RMK A01 T01190043  RH  060%=      5-min Rain = 0
KSC1 052324Z 15010KT 12/04 A3016 RMK A01 T01190043  RH  060%=      5-min Rain = 0
KSC1 052325Z 15011KT 12/04 A3016 RMK A01 T01190043  RH  060%=      5-min Rain = 0
KSC1 052326Z 15010G16KT 12/04 A3016 RMK A01 T01190043  RH  060%=      5-min Rain = 0
KSC1 052327Z 15013G18KT 12/04 A3016 RMK A01 T01190043  RH  060%=      5-min Rain = 0
KSC1 052328Z 15011KT 12/04 A3016 RMK A01 T01190042  RH  059%=      5-min Rain = 0
KSC1 052329Z 14012G17KT 12/04 A3016 RMK A01 T01190042  RH  059%=      5-min Rain = 0
KSC1 052330Z 15012KT 12/04 A3016 RMK A01 T01190042  RH  059%=      5-min Rain = 0
KSC1 052331Z 14013KT 12/04 A3016 RMK A01 T01190042  RH  059%=      5-min Rain = 0
KSC1 052332Z 14010KT 12/04 A3016 RMK A01 T01190042  RH  059%=      5-min Rain = 0
KSC1 052333Z 14010KT 12/04 A3016 RMK A01 T01190042  RH  059%=      5-min Rain = 0
KSC1 052334Z 15009KT 12/04 A3016 RMK A01 T01180041  RH  059%=      5-min Rain = 0
KSC1 052335Z 15009KT 12/04 A3016 RMK A01 T01180042  RH  059%=      5-min Rain = 0
KSC1 052336Z 15009KT 12/04 A3016 RMK A01 T01170041  RH  060%=      5-min Rain = 0
KSC1 052337Z 14008KT 12/04 A3016 RMK A01 T01170042  RH  060%=      5-min Rain = 0
KSC1 052338Z 15010KT 12/04 A3016 RMK A01 T01170042  RH  060%=      5-min Rain = 0
KSC1 052339Z 14010KT 12/04 A3016 RMK A01 T01160041  RH  060%=      5-min Rain = 0
KSC1 052340Z 15009KT 12/04 A3015 RMK A01 T01160042  RH  060%=      5-min Rain = 0
KSC1 052341Z 14010KT 12/04 A3015 RMK A01 T01160042  RH  060%=      5-min Rain = 0
KSC1 052342Z 14008KT 12/04 A3015 RMK A01 T01160042  RH  060%=      5-min Rain = 0
KSC1 052343Z 14009KT 12/04 A3015 RMK A01 T01160042  RH  060%=      5-min Rain = 0
KSC1 052344Z 14008KT 12/04 A3015 RMK A01 T01160042  RH  060%=      5-min Rain = 0
KSC1 052345Z 14007KT 12/04 A3016 RMK A01 T01160042  RH  060%=      5-min Rain = 0
KSC1 052346Z 15006KT 12/04 A3016 RMK A01 T01160042  RH  061%=      5-min Rain = 0
KSC1 052347Z 15008KT 12/04 A3016 RMK A01 T01150042  RH  061%=      5-min Rain = 0
KSC1 052348Z 15010KT 12/04 A3016 RMK A01 T01150042  RH  061%=      5-min Rain = 0
KSC1 052349Z 15011KT 12/04 A3016 RMK A01 T01150042  RH  061%=      5-min Rain = 0
KSC1 052350Z 16012KT 12/04 A3016 RMK A01 T01150042  RH  061%=      5-min Rain = 0
KSC1 052351Z 15012KT 12/04 A3016 RMK A01 T01150042  RH  061%=      5-min Rain = 0
KSC1 052352Z 15012KT 12/04 A3016 RMK A01 T01150043  RH  061%=      5-min Rain = 0
KSC1 052353Z 15011KT 12/04 A3016 RMK A01 T01160043  RH  061%=      5-min Rain = 0
KSC1 052354Z 15008KT 12/04 A3016 RMK A01 T01150043  RH  061%=      5-min Rain = 0
KSC1 052355Z 15007KT 12/04 A3016 RMK A01 T01150043  RH  061%=      5-min Rain = 0
KSC1 052356Z 15010KT 12/04 A3016 RMK A01 T01150043  RH  061%=      5-min Rain = 0
KSC1 052357Z 14009KT 11/04 A3016 RMK A01 T01140043  RH  061%=      5-min Rain = 0
KSC1 052358Z 15008KT 12/04 A3016 RMK A01 T01150043  RH  061%=      5-min Rain = 0
KSC1 052359Z 15009KT 11/04 A3016 RMK A01 T01140043  RH  062%=      5-min Rain = 0
KSC1 060000Z 15008KT 11/04 A3016 RMK A01 T01140043  RH  062%=      5-min Rain = 0
KSC1 060001Z 15009KT 11/04 A3016 RMK A01 T01140043  RH  062%=      5-min Rain = 0
KSC1 060002Z 14008KT 11/04 A3016 RMK A01 T01130043  RH  062%=      5-min Rain = 0
KSC1 060003Z 15011KT 11/04 A3016 RMK A01 T01130043  RH  062%=      5-min Rain = 0
KSC1 060004Z 14008KT 11/04 A3016 RMK A01 T01130043  RH  062%=      5-min Rain = 0
KSC1 060005Z 14011KT 11/04 A3016 RMK A01 T01130043  RH  062%=      5-min Rain = 0
KSC1 060006Z 15010KT 11/04 A3016 RMK A01 T01130043  RH  062%=      5-min Rain = 0
KSC1 060007Z 14009KT 11/04 A3016 RMK A01 T01130043  RH  062%=      5-min Rain = 0
KSC1 060008Z 14010KT 11/04 A3016 RMK A01 T01130043  RH  062%=      5-min Rain = 0
KSC1 060009Z 15010KT 11/04 A3016 RMK A01 T01130043  RH  062%=      5-min Rain = 0
KSC1 060010Z 15009KT 11/04 A3016 RMK A01 T01130043  RH  062%=      5-min Rain = 0
KSC1 060011Z 14008KT 11/04 A3016 RMK A01 T01120042  RH  062%=      5-min Rain = 0
KSC1 060012Z 14009KT 11/04 A3016 RMK A01 T01120042  RH  062%=      5-min Rain = 0
KSC1 060013Z 15010KT 11/04 A3016 RMK A01 T01120043  RH  062%=      5-min Rain = 0
KSC1 060014Z 14010KT 11/04 A3016 RMK A01 T01120043  RH  062%=      5-min Rain = 0
KSC1 060015Z 15009KT 11/04 A3016 RMK A01 T01120043  RH  062%=      5-min Rain = 0
KSC1 060016Z 16011KT 11/04 A3016 RMK A01 T01120043  RH  062%=      5-min Rain = 0
KSC1 060017Z 15012KT 11/04 A3015 RMK A01 T01120043  RH  062%=      5-min Rain = 0
KSC1 060018Z 15014KT 11/04 A3015 RMK A01 T01120043  RH  062%=      5-min Rain = 0
KSC1 060019Z 15012KT 11/04 A3015 RMK A01 T01120043  RH  062%=      5-min Rain = 0
KSC1 060020Z 15009KT 11/04 A3015 RMK A01 T01120042  RH  062%=      5-min Rain = 0
KSC1 060021Z 15014KT 11/04 A3015 RMK A01 T01120042  RH  062%=      5-min Rain = 0
KSC1 060022Z 15011KT 11/04 A3015 RMK A01 T01120042  RH  062%=      5-min Rain = 0
KSC1 060023Z 14010G16KT 11/04 A3015 RMK A01 T01120042  RH  062%=      5-min Rain = 0
KSC1 060024Z 14011KT 11/04 A3015 RMK A01 T01120042  RH  062%=      5-min Rain = 0
KSC1 060025Z 14010KT 11/04 A3015 RMK A01 T01120042  RH  062%=      5-min Rain = 0
KSC1 060026Z 14009KT 11/04 A3015 RMK A01 T01120043  RH  062%=      5-min Rain = 0
KSC1 060027Z 15010G15KT 11/04 A3015 RMK A01 T01120042  RH  062%=      5-min Rain = 0
KSC1 060028Z 15011KT 11/04 A3016 RMK A01 T01120043  RH  062%=      5-min Rain = 0
KSC1 060029Z 15013G18KT 11/04 A3016 RMK A01 T01120042  RH  062%=      5-min Rain = 0
KSC1 060030Z 15012KT 11/04 A3016 RMK A01 T01120042  RH  062%=      5-min Rain = 0
KSC1 060031Z 15013KT 11/04 A3016 RMK A01 T01120042  RH  062%=      5-min Rain = 0
KSC1 060032Z 16012KT 11/04 A3016 RMK A01 T01120042  RH  062%=      5-min Rain = 0
KSC1 060033Z 15010KT 11/04 A3016 RMK A01 T01120042  RH  062%=      5-min Rain = 0
KSC1 060034Z 15010KT 11/04 A3016 RMK A01 T01120042  RH  062%=      5-min Rain = 0
KSC1 060035Z 15012KT 11/04 A3016 RMK A01 T01120042  RH  062%=      5-min Rain = 0
KSC1 060036Z 15011KT 11/04 A3016 RMK A01 T01120042  RH  062%=      5-min Rain = 0
KSC1 060037Z 15013KT 11/04 A3016 RMK A01 T01120042  RH  062%=      5-min Rain = 0
KSC1 060038Z 15009KT 11/04 A3016 RMK A01 T01110042  RH  062%=      5-min Rain = 0
KSC1 060039Z 15010KT 11/04 A3016 RMK A01 T01120042  RH  062%=      5-min Rain = 0
KSC1 060040Z 15012KT 11/04 A3016 RMK A01 T01120043  RH  062%=      5-min Rain = 0
KSC1 060041Z 15012KT 11/04 A3016 RMK A01 T01120043  RH  062%=      5-min Rain = 0
KSC1 060042Z 14008KT 11/04 A3016 RMK A01 T01120043  RH  062%=      5-min Rain = 0
KSC1 060043Z 15007KT 11/04 A3016 RMK A01 T01120043  RH  062%=      5-min Rain = 0
KSC1 060044Z 15008KT 11/04 A3016 RMK A01 T01110043  RH  063%=      5-min Rain = 0
KSC1 060045Z 15006KT 11/04 A3016 RMK A01 T01110043  RH  063%=      5-min Rain = 0
KSC1 060046Z 15009KT 11/04 A3016 RMK A01 T01110043  RH  063%=      5-min Rain = 0
KSC1 060047Z 15010KT 11/04 A3016 RMK A01 T01110043  RH  063%=      5-min Rain = 0
KSC1 060048Z 15009KT 11/04 A3016 RMK A01 T01110042  RH  063%=      5-min Rain = 0
KSC1 060049Z 15010KT 11/04 A3016 RMK A01 T01110042  RH  063%=      5-min Rain = 0
KSC1 060050Z 14011KT 11/04 A3016 RMK A01 T01110043  RH  063%=      5-min Rain = 0
KSC1 060051Z 15010KT 11/04 A3016 RMK A01 T01110042  RH  063%=      5-min Rain = 0
KSC1 060052Z 15010KT 11/04 A3016 RMK A01 T01110042  RH  062%=      5-min Rain = 0
KSC1 060053Z 15011KT 11/04 A3016 RMK A01 T01110042  RH  062%=      5-min Rain = 0
KSC1 060054Z 15010KT 11/04 A3016 RMK A01 T01110042  RH  062%=      5-min Rain = 0
KSC1 060055Z 15011G16KT 11/04 A3016 RMK A01 T01110042  RH  062%=      5-min Rain = 0
KSC1 060056Z 15012KT 11/04 A3016 RMK A01 T01110042  RH  062%=      5-min Rain = 0
KSC1 060057Z 15012KT 11/04 A3016 RMK A01 T01120042  RH  062%=      5-min Rain = 0
KSC1 060058Z 15011G16KT 11/04 A3016 RMK A01 T01120042  RH  062%=      5-min Rain = 0
KSC1 060059Z 16013KT 11/04 A3016 RMK A01 T01120042  RH  062%=      5-min Rain = 0
KSC1 060100Z 15012KT 11/04 A3016 RMK A01 T01120042  RH  062%=      5-min Rain = 0
KSC1 060101Z 15011KT 11/04 A3016 RMK A01 T01120042  RH  062%=      5-min Rain = 0
KSC1 060102Z 15010KT 11/04 A3016 RMK A01 T01120042  RH  062%=      5-min Rain = 0
KSC1 060103Z 15008KT 11/04 A3016 RMK A01 T01120042  RH  062%=      5-min Rain = 0
KSC1 060104Z 14012KT 11/04 A3016 RMK A01 T01110042  RH  062%=      5-min Rain = 0
KSC1 060105Z 14011KT 11/04 A3016 RMK A01 T01110042  RH  062%=      5-min Rain = 0
KSC1 060106Z 15010KT 11/04 A3016 RMK A01 T01110042  RH  062%=      5-min Rain = 0
KSC1 060107Z 14010KT 11/04 A3016 RMK A01 T01110042  RH  062%=      5-min Rain = 0
KSC1 060108Z 15013KT 11/04 A3016 RMK A01 T01110042  RH  062%=      5-min Rain = 0
KSC1 060109Z 14010KT 11/04 A3016 RMK A01 T01110043  RH  062%=      5-min Rain = 0
KSC1 060110Z 15010KT 11/04 A3016 RMK A01 T01110042  RH  063%=      5-min Rain = 0
KSC1 060111Z 15009KT 11/04 A3016 RMK A01 T01110043  RH  063%=      5-min Rain = 0
KSC1 060112Z 15010KT 11/04 A3016 RMK A01 T01110043  RH  063%=      5-min Rain = 0
KSC1 060113Z 14012KT 11/04 A3016 RMK A01 T01110043  RH  063%=      5-min Rain = 0
KSC1 060114Z 15012KT 11/04 A3016 RMK A01 T01110043  RH  063%=      5-min Rain = 0
KSC1 060115Z 16011KT 11/04 A3016 RMK A01 T01120044  RH  063%=      5-min Rain = 0
KSC1 060116Z 15011KT 11/04 A3016 RMK A01 T01110043  RH  063%=      5-min Rain = 0
KSC1 060117Z 15010KT 11/04 A3016 RMK A01 T01110043  RH  063%=      5-min Rain = 0
KSC1 060118Z 15013KT 11/04 A3016 RMK A01 T01110043  RH  063%=      5-min Rain = 0
KSC1 060119Z 16011KT 11/04 A3016 RMK A01 T01110043  RH  063%=      5-min Rain = 0
KSC1 060120Z 15013KT 11/04 A3016 RMK A01 T01110043  RH  063%=      5-min Rain = 0
KSC1 060121Z 15010KT 11/04 A3016 RMK A01 T01110044  RH  063%=      5-min Rain = 0
KSC1 060122Z 15011KT 11/04 A3016 RMK A01 T01110044  RH  063%=      5-min Rain = 0
KSC1 060123Z 15010KT 11/04 A3016 RMK A01 T01110044  RH  063%=      5-min Rain = 0
KSC1 060124Z 15008KT 11/04 A3016 RMK A01 T01100044  RH  063%=      5-min Rain = 0
KSC1 060125Z 15009KT 11/04 A3016 RMK A01 T01100044  RH  063%=      5-min Rain = 0
KSC1 060126Z 15008KT 11/04 A3016 RMK A01 T01100044  RH  064%=      5-min Rain = 0
KSC1 060127Z 15011KT 11/04 A3016 RMK A01 T01100044  RH  064%=      5-min Rain = 0
KSC1 060128Z 14009KT 11/04 A3016 RMK A01 T01100044  RH  064%=      5-min Rain = 0
KSC1 060129Z 15009KT 11/04 A3016 RMK A01 T01100044  RH  064%=      5-min Rain = 0
KSC1 060130Z 15010KT 11/04 A3016 RMK A01 T01100044  RH  064%=      5-min Rain = 0
KSC1 060131Z 15012KT 11/04 A3016 RMK A01 T01100044  RH  064%=      5-min Rain = 0
KSC1 060132Z 15012KT 11/04 A3016 RMK A01 T01100044  RH  064%=      5-min Rain = 0
KSC1 060133Z 15010KT 11/04 A3016 RMK A01 T01100044  RH  064%=      5-min Rain = 0
KSC1 060134Z 15008KT 11/04 A3016 RMK A01 T01100044  RH  064%=      5-min Rain = 0
KSC1 060135Z 15010KT 11/04 A3016 RMK A01 T01100044  RH  064%=      5-min Rain = 0
KSC1 060136Z 14010KT 11/04 A3016 RMK A01 T01100044  RH  064%=      5-min Rain = 0
KSC1 060137Z 15010KT 11/04 A3016 RMK A01 T01100044  RH  064%=      5-min Rain = 0
KSC1 060138Z 15011KT 11/04 A3016 RMK A01 T01090044  RH  064%=      5-min Rain = 0
KSC1 060139Z 16011KT 11/04 A3016 RMK A01 T01090044  RH  064%=      5-min Rain = 0
KSC1 060140Z 15012KT 11/04 A3016 RMK A01 T01090044  RH  064%=      5-min Rain = 0
KSC1 060141Z 16013KT 11/04 A3016 RMK A01 T01090044  RH  064%=      5-min Rain = 0
KSC1 060142Z 16012KT 11/04 A3016 RMK A01 T01090044  RH  064%=      5-min Rain = 0
KSC1 060143Z 16011G16KT 11/04 A3016 RMK A01 T01090044  RH  064%=      5-min Rain = 0
KSC1 060144Z 15011KT 11/04 A3016 RMK A01 T01090044  RH  064%=      5-min Rain = 0
KSC1 060145Z 16015KT 11/04 A3016 RMK A01 T01080043  RH  064%=      5-min Rain = 0
KSC1 060146Z 15016KT 11/04 A3016 RMK A01 T01090044  RH  064%=      5-min Rain = 0
KSC1 060147Z 15013KT 11/04 A3016 RMK A01 T01080043  RH  064%=      5-min Rain = 0
KSC1 060148Z 15010KT 11/04 A3016 RMK A01 T01080043  RH  064%=      5-min Rain = 0
KSC1 060149Z 15011KT 11/04 A3016 RMK A01 T01080043  RH  064%=      5-min Rain = 0
KSC1 060150Z 15012KT 11/04 A3016 RMK A01 T01070043  RH  064%=      5-min Rain = 0
KSC1 060151Z 15013KT 11/04 A3016 RMK A01 T01070043  RH  065%=      5-min Rain = 0
KSC1 060152Z 15012KT 11/04 A3016 RMK A01 T01070043  RH  065%=      5-min Rain = 0
KSC1 060153Z 15014KT 11/04 A3016 RMK A01 T01070043  RH  065%=      5-min Rain = 0
KSC1 060154Z 15014KT 11/04 A3016 RMK A01 T01070043  RH  065%=      5-min Rain = 0
KSC1 060155Z 15011KT 11/04 A3016 RMK A01 T01070043  RH  065%=      5-min Rain = 0
KSC1 060156Z 15012G17KT 11/04 A3016 RMK A01 T01070043  RH  065%=      5-min Rain = 0
KSC1 060157Z 15014KT 11/04 A3016 RMK A01 T01060043  RH  065%=      5-min Rain = 0
KSC1 060158Z 16014KT 11/04 A3016 RMK A01 T01060043  RH  065%=      5-min Rain = 0
KSC1 060159Z 16015KT 11/04 A3016 RMK A01 T01060043  RH  065%=      5-min Rain = 0
KSC1 060200Z 15013G19KT 11/04 A3016 RMK A01 T01060043  RH  065%=      5-min Rain = 0
KSC1 060201Z 15010KT 11/04 A3016 RMK A01 T01060044  RH  065%=      5-min Rain = 0
KSC1 060202Z 15013KT 11/04 A3016 RMK A01 T01060044  RH  065%=      5-min Rain = 0
KSC1 060203Z 15011KT 11/04 A3016 RMK A01 T01060044  RH  065%=      5-min Rain = 0
KSC1 060204Z 15010KT 11/04 A3016 RMK A01 T01060043  RH  065%=      5-min Rain = 0
KSC1 060205Z 15011KT 11/04 A3016 RMK A01 T01060043  RH  065%=      5-min Rain = 0
KSC1 060206Z 15012KT 11/04 A3016 RMK A01 T01060043  RH  065%=      5-min Rain = 0
KSC1 060207Z 15013KT 11/04 A3016 RMK A01 T01060043  RH  065%=      5-min Rain = 0
KSC1 060208Z 15013KT 11/04 A3016 RMK A01 T01060043  RH  065%=      5-min Rain = 0
KSC1 060209Z 15014KT 11/04 A3016 RMK A01 T01060043  RH  065%=      5-min Rain = 0
KSC1 060210Z 15012KT 11/04 A3016 RMK A01 T01060043  RH  065%=      5-min Rain = 0
KSC1 060211Z 15011KT 11/04 A3016 RMK A01 T01050043  RH  065%=      5-min Rain = 0
KSC1 060212Z 15012KT 11/04 A3015 RMK A01 T01050043  RH  065%=      5-min Rain = 0
KSC1 060213Z 15014G19KT 11/04 A3015 RMK A01 T01050043  RH  066%=      5-min Rain = 0
KSC1 060214Z 15014KT 11/04 A3015 RMK A01 T01050043  RH  066%=      5-min Rain = 0
KSC1 060215Z 15012G17KT 11/04 A3016 RMK A01 T01050044  RH  066%=      5-min Rain = 0
KSC1 060216Z 15016KT 11/04 A3016 RMK A01 T01050044  RH  066%=      5-min Rain = 0
KSC1 060217Z 15014KT 11/04 A3016 RMK A01 T01050044  RH  066%=      5-min Rain = 0
KSC1 060218Z 15014KT 11/04 A3016 RMK A01 T01050044  RH  066%=      5-min Rain = 0
KSC1 060219Z 15012KT 11/04 A3016 RMK A01 T01050044  RH  066%=      5-min Rain = 0
KSC1 060220Z 15012KT 10/04 A3016 RMK A01 T01040044  RH  066%=      5-min Rain = 0
KSC1 060221Z 15012KT 10/04 A3016 RMK A01 T01040044  RH  066%=      5-min Rain = 0
KSC1 060222Z 15010KT 10/04 A3016 RMK A01 T01040044  RH  066%=      5-min Rain = 0
KSC1 060223Z 15011KT 10/04 A3016 RMK A01 T01040044  RH  066%=      5-min Rain = 0
KSC1 060224Z 15011KT 10/04 A3016 RMK A01 T01040044  RH  066%=      5-min Rain = 0
KSC1 060225Z 16011KT 10/04 A3016 RMK A01 T01040044  RH  066%=      5-min Rain = 0
KSC1 060226Z 15012G17KT 10/04 A3016 RMK A01 T01030043  RH  066%=      5-min Rain = 0
KSC1 060227Z 15015KT 10/04 A3016 RMK A01 T01030044  RH  066%=      5-min Rain = 0
KSC1 060228Z 16014KT 10/04 A3016 RMK A01 T01030043  RH  066%=      5-min Rain = 0
KSC1 060229Z 15012KT 10/04 A3016 RMK A01 T01030043  RH  066%=      5-min Rain = 0
KSC1 060230Z 16013KT 10/04 A3015 RMK A01 T01040043  RH  066%=      5-min Rain = 0
KSC1 060231Z 15011G17KT 10/04 A3015 RMK A01 T01030043  RH  066%=      5-min Rain = 0
KSC1 060232Z 15011KT 10/04 A3015 RMK A01 T01030043  RH  066%=      5-min Rain = 0
KSC1 060233Z 15014G19KT 10/04 A3015 RMK A01 T01040043  RH  066%=      5-min Rain = 0
KSC1 060234Z 16014KT 10/04 A3016 RMK A01 T01040043  RH  066%=      5-min Rain = 0
KSC1 060235Z 15012KT 10/04 A3016 RMK A01 T01030043  RH  066%=      5-min Rain = 0
KSC1 060236Z 16011KT 10/04 A3016 RMK A01 T01030043  RH  066%=      5-min Rain = 0
KSC1 060237Z 16010KT 10/04 A3016 RMK A01 T01030043  RH  066%=      5-min Rain = 0
KSC1 060238Z 15012G17KT 10/04 A3016 RMK A01 T01040043  RH  066%=      5-min Rain = 0
KSC1 060239Z 15012G17KT 10/04 A3015 RMK A01 T01030043  RH  066%=      5-min Rain = 0
KSC1 060240Z 15012G17KT 10/04 A3015 RMK A01 T01030043  RH  066%=      5-min Rain = 0
KSC1 060241Z 16011KT 10/04 A3015 RMK A01 T01030042  RH  066%=      5-min Rain = 0
KSC1 060242Z 16011G17KT 10/04 A3015 RMK A01 T01030043  RH  066%=      5-min Rain = 0
KSC1 060243Z 15012KT 10/04 A3015 RMK A01 T01030042  RH  066%=      5-min Rain = 0
KSC1 060244Z 15012G18KT 10/04 A3015 RMK A01 T01030042  RH  066%=      5-min Rain = 0
KSC1 060245Z 15012KT 10/04 A3015 RMK A01 T01030043  RH  066%=      5-min Rain = 0
KSC1 060246Z 15014KT 10/04 A3015 RMK A01 T01020043  RH  066%=      5-min Rain = 0
KSC1 060247Z 15014KT 10/04 A3015 RMK A01 T01020043  RH  067%=      5-min Rain = 0
KSC1 060248Z 16015KT 10/04 A3015 RMK A01 T01020043  RH  067%=      5-min Rain = 0
KSC1 060249Z 16011KT 10/04 A3015 RMK A01 T01020043  RH  067%=      5-min Rain = 0
KSC1 060250Z 15012G17KT 10/04 A3015 RMK A01 T01020043  RH  067%=      5-min Rain = 0
KSC1 060251Z 16015G20KT 10/04 A3015 RMK A01 T01020044  RH  067%=      5-min Rain = 0
KSC1 060252Z 16013KT 10/04 A3015 RMK A01 T01020044  RH  067%=      5-min Rain = 0
KSC1 060253Z 16013KT 10/04 A3015 RMK A01 T01020044  RH  067%=      5-min Rain = 0
KSC1 060254Z 16012G17KT 10/04 A3015 RMK A01 T01020044  RH  067%=      5-min Rain = 0
KSC1 060255Z 16014KT 10/04 A3015 RMK A01 T01020044  RH  067%=      5-min Rain = 0
KSC1 060256Z 16013KT 10/04 A3015 RMK A01 T01020044  RH  067%=      5-min Rain = 0
KSC1 060257Z 16013KT 10/05 A3015 RMK A01 T01020045  RH  068%=      5-min Rain = 0
KSC1 060258Z 16013G19KT 10/05 A3015 RMK A01 T01020045  RH  068%=      5-min Rain = 0
KSC1 060259Z 16015KT 10/05 A3015 RMK A01 T01020046  RH  068%=      5-min Rain = 0
KSC1 060300Z 16011KT 10/05 A3015 RMK A01 T01020046  RH  068%=      5-min Rain = 0
KSC1 060301Z 16013KT 10/05 A3015 RMK A01 T01030046  RH  068%=      5-min Rain = 0
KSC1 060302Z 16014G19KT 10/05 A3015 RMK A01 T01020046  RH  068%=      5-min Rain = 0
KSC1 060303Z 15013KT 10/05 A3015 RMK A01 T01020046  RH  068%=      5-min Rain = 0
KSC1 060304Z 16015KT 10/05 A3015 RMK A01 T01020047  RH  068%=      5-min Rain = 0
KSC1 060305Z 16015KT 10/05 A3015 RMK A01 T01020047  RH  069%=      5-min Rain = 0
KSC1 060306Z 16013KT 10/05 A3015 RMK A01 T01020047  RH  069%=      5-min Rain = 0
KSC1 060307Z 17011G16KT 10/05 A3015 RMK A01 T01020048  RH  069%=      5-min Rain = 0
KSC1 060308Z 17011KT 10/05 A3015 RMK A01 T01020048  RH  069%=      5-min Rain = 0
KSC1 060309Z 15012G17KT 10/05 A3015 RMK A01 T01020048  RH  069%=      5-min Rain = 0
KSC1 060310Z 16013G18KT 10/05 A3015 RMK A01 T01020048  RH  069%=      5-min Rain = 0
KSC1 060311Z 16012KT 10/05 A3015 RMK A01 T01020048  RH  069%=      5-min Rain = 0
KSC1 060312Z 16012KT 10/05 A3015 RMK A01 T01010048  RH  069%=      5-min Rain = 0
KSC1 060313Z 16012KT 10/05 A3015 RMK A01 T01010047  RH  069%=      5-min Rain = 0
KSC1 060314Z 15011G16KT 10/05 A3015 RMK A01 T01010047  RH  069%=      5-min Rain = 0
KSC1 060315Z 17013KT 10/05 A3015 RMK A01 T01010047  RH  069%=      5-min Rain = 0
KSC1 060316Z 16011KT 10/05 A3015 RMK A01 T01010048  RH  070%=      5-min Rain = 0
KSC1 060317Z 16010KT 10/05 A3015 RMK A01 T01010048  RH  070%=      5-min Rain = 0
KSC1 060318Z 16011KT 10/05 A3015 RMK A01 T01010048  RH  070%=      5-min Rain = 0
KSC1 060319Z 16011G16KT 10/05 A3015 RMK A01 T01010048  RH  070%=      5-min Rain = 0
KSC1 060320Z 16012KT 10/05 A3015 RMK A01 T01010048  RH  070%=      5-min Rain = 0
KSC1 060321Z 17013G20KT 10/05 A3015 RMK A01 T01010049  RH  070%=      5-min Rain = 0
KSC1 060322Z 16016G21KT 10/05 A3015 RMK A01 T01010049  RH  070%=      5-min Rain = 0
KSC1 060323Z 16014G19KT 10/05 A3015 RMK A01 T01010050  RH  071%=      5-min Rain = 0
KSC1 060324Z 16016KT 10/05 A3015 RMK A01 T01010050  RH  071%=      5-min Rain = 0
KSC1 060325Z 16019G26KT 10/05 A3015 RMK A01 T01010050  RH  071%=      5-min Rain = 0
KSC1 060326Z 16015KT 10/05 A3015 RMK A01 T01010051  RH  071%=      5-min Rain = 0
KSC1 060327Z 16013KT 10/05 A3015 RMK A01 T01010051  RH  071%=      5-min Rain = 0
KSC1 060328Z 16012KT 10/05 A3015 RMK A01 T01010051  RH  071%=      5-min Rain = 0
KSC1 060329Z 15011KT 10/05 A3015 RMK A01 T01010051  RH  071%=      5-min Rain = 0
KSC1 060330Z 16013G20KT 10/05 A3015 RMK A01 T01010051  RH  071%=      5-min Rain = 0
KSC1 060331Z 16017KT 10/05 A3014 RMK A01 T01010051  RH  071%=      5-min Rain = 0
KSC1 060332Z 16014KT 10/05 A3014 RMK A01 T01010051  RH  071%=      5-min Rain = 0
KSC1 060333Z 16016G21KT 10/05 A3014 RMK A01 T01010051  RH  071%=      5-min Rain = 0
KSC1 060334Z 17013KT 10/05 A3015 RMK A01 T01010051  RH  071%=      5-min Rain = 0
KSC1 060335Z 16012KT 10/05 A3015 RMK A01 T01000051  RH  071%=      5-min Rain = 0
KSC1 060336Z 15011G17KT 10/05 A3015 RMK A01 T01000051  RH  071%=      5-min Rain = 0
KSC1 060337Z 16016G22KT 10/05 A3015 RMK A01 T01000050  RH  071%=      5-min Rain = 0
KSC1 060338Z 16014G22KT 10/05 A3015 RMK A01 T01000051  RH  072%=      5-min Rain = 0
KSC1 060339Z 17018KT 10/05 A3015 RMK A01 T01000051  RH  072%=      5-min Rain = 0
KSC1 060340Z 16014G19KT 10/05 A3015 RMK A01 T01000051  RH  072%=      5-min Rain = 0
KSC1 060341Z 16011KT 10/05 A3015 RMK A01 T01000051  RH  072%=      5-min Rain = 0
KSC1 060342Z 16012G18KT 10/05 A3015 RMK A01 T01000051  RH  072%=      5-min Rain = 0
KSC1 060343Z 17013KT 10/05 A3015 RMK A01 T01000051  RH  072%=      5-min Rain = 0
KSC1 060344Z 17012KT 10/05 A3015 RMK A01 T01000051  RH  072%=      5-min Rain = 0
KSC1 060345Z 16016G21KT 10/05 A3015 RMK A01 T01000051  RH  072%=      5-min Rain = 0
KSC1 060346Z 16013G18KT 10/05 A3015 RMK A01 T01000051  RH  072%=      5-min Rain = 0
KSC1 060347Z 16011KT 10/05 A3015 RMK A01 T01000051  RH  072%=      5-min Rain = 0
KSC1 060348Z 16011KT 10/05 A3015 RMK A01 T01000051  RH  072%=      5-min Rain = 0
KSC1 060349Z 16014KT 10/05 A3015 RMK A01 T00990051  RH  072%=      5-min Rain = 0
KSC1 060350Z 15010KT 10/05 A3015 RMK A01 T00990051  RH  072%=      5-min Rain = 0
KSC1 060351Z 16009KT 10/05 A3015 RMK A01 T00990051  RH  072%=      5-min Rain = 0
KSC1 060352Z 16013G19KT 10/05 A3015 RMK A01 T00990051  RH  072%=      5-min Rain = 0
KSC1 060353Z 16014KT 10/05 A3015 RMK A01 T00990051  RH  072%=      5-min Rain = 0
KSC1 060354Z 16012KT 10/05 A3015 RMK A01 T00990051  RH  072%=      5-min Rain = 0
KSC1 060355Z 16010KT 10/05 A3015 RMK A01 T00990051  RH  072%=      5-min Rain = 0
KSC1 060356Z 16013KT 10/05 A3015 RMK A01 T00980051  RH  072%=      5-min Rain = 0
KSC1 060357Z 16014KT 10/05 A3015 RMK A01 T00980051  RH  073%=      5-min Rain = 0
KSC1 060358Z 16016G23KT 10/05 A3015 RMK A01 T00990052  RH  073%=      5-min Rain = 0
KSC1 060359Z 17014G20KT 10/05 A3015 RMK A01 T00980051  RH  072%=      5-min Rain = 0
KSC1 060400Z 16013KT 10/05 A3015 RMK A01 T00980051  RH  072%=      5-min Rain = 0
KSC1 060401Z 17013KT 10/05 A3015 RMK A01 T00980051  RH  072%=      5-min Rain = 0
KSC1 060402Z 16014G20KT 10/05 A3015 RMK A01 T00980051  RH  072%=      5-min Rain = 0
KSC1 060403Z 17016G21KT 10/05 A3015 RMK A01 T00980051  RH  073%=      5-min Rain = 0
KSC1 060404Z 17016KT 10/05 A3015 RMK A01 T00980051  RH  073%=      5-min Rain = 0
KSC1 060405Z 17014G19KT 10/05 A3015 RMK A01 T00980051  RH  073%=      5-min Rain = 0
KSC1 060406Z 16013G18KT 10/05 A3015 RMK A01 T00980051  RH  073%=      5-min Rain = 0
KSC1 060407Z 16014G19KT 10/05 A3015 RMK A01 T00970050  RH  073%=      5-min Rain = 0
KSC1 060408Z 17014KT 10/05 A3015 RMK A01 T00980051  RH  073%=      5-min Rain = 0
KSC1 060409Z 17012G17KT 10/05 A3015 RMK A01 T00970050  RH  073%=      5-min Rain = 0
KSC1 060410Z 17012KT 10/05 A3015 RMK A01 T00970050  RH  073%=      5-min Rain = 0
KSC1 060411Z 16011G18KT 10/05 A3015 RMK A01 T00960050  RH  073%=      5-min Rain = 0
KSC1 060412Z 17012KT 10/05 A3015 RMK A01 T00960050  RH  073%=      5-min Rain = 0
KSC1 060413Z 17013G18KT 10/05 A3015 RMK A01 T00960050  RH  073%=      5-min Rain = 0
KSC1 060414Z 17019G24KT 10/05 A3015 RMK A01 T00960050  RH  073%=      5-min Rain = 0
KSC1 060415Z 17018G24KT 10/05 A3015 RMK A01 T00960050  RH  073%=      5-min Rain = 0
KSC1 060416Z 17019G24KT 10/05 A3015 RMK A01 T00970050  RH  073%=      5-min Rain = 0
KSC1 060417Z 17016G21KT 10/05 A3015 RMK A01 T00970050  RH  073%=      5-min Rain = 0
KSC1 060418Z 16016G21KT 10/05 A3015 RMK A01 T00970050  RH  073%=      5-min Rain = 0
KSC1 060419Z 17016G21KT 10/05 A3015 RMK A01 T00970050  RH  073%=      5-min Rain = 0
KSC1 060420Z 17013KT 10/05 A3015 RMK A01 T00970050  RH  073%=      5-min Rain = 0
KSC1 060421Z 17011G16KT 10/05 A3015 RMK A01 T00970050  RH  073%=      5-min Rain = 0
KSC1 060422Z 16013KT 10/05 A3015 RMK A01 T00960050  RH  073%=      5-min Rain = 0
KSC1 060423Z 17013G18KT 10/05 A3015 RMK A01 T00970051  RH  073%=      5-min Rain = 0
KSC1 060424Z 16013G19KT 10/05 A3015 RMK A01 T00970050  RH  073%=      5-min Rain = 0
KSC1 060425Z 17014KT 10/05 A3015 RMK A01 T00960050  RH  073%=      5-min Rain = 0
KSC1 060426Z 17012KT 10/05 A3016 RMK A01 T00970051  RH  073%=      5-min Rain = 0
KSC1 060427Z 16011G16KT 10/05 A3016 RMK A01 T00970051  RH  073%=      5-min Rain = 0
KSC1 060428Z 16013KT 10/05 A3016 RMK A01 T00970051  RH  073%=      5-min Rain = 0
KSC1 060429Z 17016KT 10/05 A3015 RMK A01 T00970051  RH  073%=      5-min Rain = 0
KSC1 060430Z 17015KT 10/05 A3016 RMK A01 T00960050  RH  073%=      5-min Rain = 0
KSC1 060431Z 16013G18KT 10/05 A3016 RMK A01 T00960050  RH  073%=      5-min Rain = 0
KSC1 060432Z 17012KT 10/05 A3016 RMK A01 T00960050  RH  073%=      5-min Rain = 0
KSC1 060433Z 17015G21KT 10/05 A3016 RMK A01 T00970050  RH  073%=      5-min Rain = 0
KSC1 060434Z 17016KT 10/05 A3016 RMK A01 T00970050  RH  073%=      5-min Rain = 0
KSC1 060435Z 17014KT 10/05 A3016 RMK A01 T00970050  RH  073%=      5-min Rain = 0
KSC1 060436Z 17012G18KT 10/05 A3016 RMK A01 T00960049  RH  073%=      5-min Rain = 0
KSC1 060437Z 16015KT 10/05 A3016 RMK A01 T00970050  RH  073%=      5-min Rain = 0
KSC1 060438Z 17013KT 10/05 A3016 RMK A01 T00970050  RH  073%=      5-min Rain = 0
KSC1 060439Z 17013KT 10/05 A3016 RMK A01 T00960050  RH  073%=      5-min Rain = 0
KSC1 060440Z 16013G18KT 10/05 A3016 RMK A01 T00970050  RH  073%=      5-min Rain = 0
KSC1 060441Z 17011G16KT 10/05 A3016 RMK A01 T00970050  RH  073%=      5-min Rain = 0
KSC1 060442Z 17011KT 10/05 A3016 RMK A01 T00970050  RH  073%=      5-min Rain = 0
KSC1 060443Z 17011KT 10/05 A3016 RMK A01 T00960050  RH  073%=      5-min Rain = 0
KSC1 060444Z 16013G21KT 10/05 A3016 RMK A01 T00970050  RH  073%=      5-min Rain = 0
KSC1 060445Z 17017KT 10/05 A3016 RMK A01 T00970050  RH  073%=      5-min Rain = 0
KSC1 060446Z 16012G17KT 10/05 A3016 RMK A01 T00970050  RH  073%=      5-min Rain = 0
KSC1 060447Z 16016G21KT 10/05 A3016 RMK A01 T00970050  RH  073%=      5-min Rain = 0
KSC1 060448Z 17012G18KT 10/05 A3015 RMK A01 T00970050  RH  073%=      5-min Rain = 0
KSC1 060449Z 17012KT 10/05 A3015 RMK A01 T00960050  RH  073%=      5-min Rain = 0
KSC1 060450Z 17013KT 10/05 A3015 RMK A01 T00960050  RH  073%=      5-min Rain = 0
KSC1 060451Z 16011G16KT 10/05 A3015 RMK A01 T00960050  RH  073%=      5-min Rain = 0
KSC1 060452Z 16009G14KT 10/05 A3015 RMK A01 T00950050  RH  073%=      5-min Rain = 0
KSC1 060453Z 16012G17KT 10/05 A3015 RMK A01 T00950050  RH  073%=      5-min Rain = 0
KSC1 060454Z 16012G17KT 10/05 A3015 RMK A01 T00950049  RH  073%=      5-min Rain = 0
KSC1 060455Z 16013KT 10/05 A3015 RMK A01 T00950050  RH  073%=      5-min Rain = 0
KSC1 060456Z 17013G18KT 10/05 A3015 RMK A01 T00950050  RH  073%=      5-min Rain = 0
KSC1 060457Z 16014KT 10/05 A3015 RMK A01 T00950050  RH  073%=      5-min Rain = 0
KSC1 060458Z 17016G21KT 10/05 A3015 RMK A01 T00950050  RH  073%=      5-min Rain = 0
KSC1 060459Z 16013G18KT 10/05 A3015 RMK A01 T00950050  RH  074%=      5-min Rain = 0
KSC1 060500Z 17014KT 10/05 A3014 RMK A01 T00950051  RH  074%=      5-min Rain = 0
KSC1 060501Z 17011G17KT 10/05 A3014 RMK A01 T00950050  RH  074%=      5-min Rain = 0
KSC1 060502Z 16009KT 10/05 A3015 RMK A01 T00950050  RH  074%=      5-min Rain = 0
KSC1 060503Z 17011G16KT 09/05 A3015 RMK A01 T00940050  RH  074%=      5-min Rain = 0
KSC1 060504Z 16010KT 09/05 A3015 RMK A01 T00940050  RH  074%=      5-min Rain = 0
KSC1 060505Z 17013KT 09/05 A3015 RMK A01 T00940050  RH  074%=      5-min Rain = 0
KSC1 060506Z 17011G16KT 09/05 A3015 RMK A01 T00940051  RH  074%=      5-min Rain = 0
KSC1 060507Z 17012KT 09/05 A3015 RMK A01 T00940051  RH  074%=      5-min Rain = 0
KSC1 060508Z 17014KT 09/05 A3015 RMK A01 T00940051  RH  075%=      5-min Rain = 0
KSC1 060509Z 17012KT 09/05 A3015 RMK A01 T00940051  RH  074%=      5-min Rain = 0
KSC1 060510Z 17017KT 09/05 A3015 RMK A01 T00940051  RH  074%=      5-min Rain = 0
KSC1 060511Z 17016KT 09/05 A3015 RMK A01 T00940051  RH  075%=      5-min Rain = 0
KSC1 060512Z 17017G22KT 09/05 A3014 RMK A01 T00940051  RH  075%=      5-min Rain = 0
KSC1 060513Z 17016G24KT 09/05 A3014 RMK A01 T00940051  RH  075%=      5-min Rain = 0
KSC1 060514Z 17018G24KT 09/05 A3014 RMK A01 T00940051  RH  074%=      5-min Rain = 0
KSC1 060515Z 17014G19KT 09/05 A3014 RMK A01 T00940051  RH  074%=      5-min Rain = 0
KSC1 060516Z 17018G23KT 09/05 A3014 RMK A01 T00940051  RH  074%=      5-min Rain = 0
KSC1 060517Z 17018G23KT 09/05 A3014 RMK A01 T00940051  RH  075%=      5-min Rain = 0
KSC1 060518Z 17014KT 09/05 A3014 RMK A01 T00940051  RH  075%=      5-min Rain = 0
KSC1 060519Z 16015KT 09/05 A3014 RMK A01 T00940051  RH  075%=      5-min Rain = 0
KSC1 060520Z 17013G18KT 09/05 A3014 RMK A01 T00930051  RH  075%=      5-min Rain = 0
KSC1 060521Z 17011KT 09/05 A3014 RMK A01 T00930051  RH  075%=      5-min Rain = 0
KSC1 060522Z 16011KT 09/05 A3014 RMK A01 T00930050  RH  075%=      5-min Rain = 0
KSC1 060523Z 17013KT 09/05 A3014 RMK A01 T00930051  RH  075%=      5-min Rain = 0
KSC1 060524Z 17015KT 09/05 A3014 RMK A01 T00930051  RH  075%=      5-min Rain = 0
KSC1 060525Z 17017G22KT 09/05 A3014 RMK A01 T00930051  RH  075%=      5-min Rain = 0
KSC1 060526Z 17013G19KT 09/05 A3014 RMK A01 T00920050  RH  075%=      5-min Rain = 0
KSC1 060527Z 17015KT 09/05 A3014 RMK A01 T00930050  RH  075%=      5-min Rain = 0
KSC1 060528Z 17014G21KT 09/05 A3014 RMK A01 T00920050  RH  075%=      5-min Rain = 0
KSC1 060529Z 17015G22KT 09/05 A3014 RMK A01 T00920050  RH  075%=      5-min Rain = 0
KSC1 060530Z 18013KT 09/05 A3014 RMK A01 T00920050  RH  075%=      5-min Rain = 0
KSC1 060531Z 17010G15KT 09/05 A3014 RMK A01 T00920050  RH  075%=      5-min Rain = 0
KSC1 060532Z 17011G17KT 09/05 A3014 RMK A01 T00920050  RH  075%=      5-min Rain = 0
KSC1 060533Z 17015G20KT 09/05 A3014 RMK A01 T00920051  RH  075%=      5-min Rain = 0
KSC1 060534Z 18015G21KT 09/05 A3014 RMK A01 T00920050  RH  075%=      5-min Rain = 0
KSC1 060535Z 17017KT 09/05 A3014 RMK A01 T00920051  RH  075%=      5-min Rain = 0
KSC1 060536Z 18016G22KT 09/05 A3014 RMK A01 T00920051  RH  075%=      5-min Rain = 0
KSC1 060537Z 17013G18KT 09/05 A3014 RMK A01 T00920050  RH  075%=      5-min Rain = 0
KSC1 060538Z 17016KT 09/05 A3014 RMK A01 T00920050  RH  075%=      5-min Rain = 0
KSC1 060539Z 17013KT 09/05 A3014 RMK A01 T00920051  RH  075%=      5-min Rain = 0
KSC1 060540Z 17016KT 09/05 A3013 RMK A01 T00920051  RH  075%=      5-min Rain = 0
KSC1 060541Z 17016G21KT 09/05 A3013 RMK A01 T00920051  RH  076%=      5-min Rain = 0
KSC1 060542Z 17013G19KT 09/05 A3013 RMK A01 T00920051  RH  076%=      5-min Rain = 0
KSC1 060543Z 17014G21KT 09/05 A3013 RMK A01 T00920051  RH  076%=      5-min Rain = 0
KSC1 060544Z 16015G20KT 09/05 A3013 RMK A01 T00920051  RH  076%=      5-min Rain = 0
KSC1 060545Z 17016KT 09/05 A3013 RMK A01 T00920051  RH  076%=      5-min Rain = 0
KSC1 060546Z 17020G25KT 09/05 A3013 RMK A01 T00920051  RH  076%=      5-min Rain = 0
KSC1 060547Z 17016G21KT 09/05 A3013 RMK A01 T00920051  RH  076%=      5-min Rain = 0
KSC1 060548Z 17013G19KT 09/05 A3013 RMK A01 T00920051  RH  075%=      5-min Rain = 0
KSC1 060549Z 17016KT 09/05 A3013 RMK A01 T00920051  RH  076%=      5-min Rain = 0
KSC1 060550Z 16016G22KT 09/05 A3013 RMK A01 T00920051  RH  076%=      5-min Rain = 0
KSC1 060551Z 17010G16KT 09/05 A3013 RMK A01 T00910051  RH  076%=      5-min Rain = 0
KSC1 060552Z 17019KT 09/05 A3013 RMK A01 T00910051  RH  076%=      5-min Rain = 0
KSC1 060553Z 17014G19KT 09/05 A3013 RMK A01 T00910051  RH  076%=      5-min Rain = 0
KSC1 060554Z 17011G16KT 09/05 A3013 RMK A01 T00910050  RH  076%=      5-min Rain = 0
KSC1 060555Z 17016KT 09/05 A3013 RMK A01 T00910050  RH  076%=      5-min Rain = 0
KSC1 060556Z 17013KT 09/05 A3013 RMK A01 T00910051  RH  076%=      5-min Rain = 0
KSC1 060557Z 17015KT 09/05 A3013 RMK A01 T00910051  RH  076%=      5-min Rain = 0
KSC1 060558Z 17014G19KT 09/05 A3013 RMK A01 T00910051  RH  076%=      5-min Rain = 0
KSC1 060559Z 16014G19KT 09/05 A3013 RMK A01 T00910051  RH  076%=      5-min Rain = 0

Page generated in 0.0651 seconds.